<?xml version="1.0" encoding="UTF-8" standalone="no" ?>
<gpx xmlns="http://www.topografix.com/GPX/1/1" xmlns:xsi="http://www.w3.org/2001/XMLSchema-instance" xsi:schemaLocation="http://www.topografix.com/GPX/1/1 http://www.topografix.com/GPX/1/1/gpx.xsd" version="1.1" creator="VisuGPX - https://www.visugpx.com">
  <metadata>
    <name>Le Fau - 13062 - UtagawaVTT.com</name>
  </metadata>
  <trk>
    <name><![CDATA[Le Fau - 13062 - UtagawaVTT.com]]></name>
    <trkseg>
      <trkpt lat="43.96364" lon="1.38923">
        <ele>198.603745</ele>
        <time>2016-09-03T06:37:46Z</time>
      </trkpt>
      <trkpt lat="43.96364" lon="1.3892">
        <ele>198.705002</ele>
        <time>2016-09-03T06:38:25Z</time>
      </trkpt>
      <trkpt lat="43.96358" lon="1.3893">
        <ele>198.669998</ele>
        <time>2016-09-03T06:38:38Z</time>
      </trkpt>
      <trkpt lat="43.96358" lon="1.38929">
        <ele>198.712494</ele>
        <time>2016-09-03T06:38:56Z</time>
      </trkpt>
      <trkpt lat="43.9636" lon="1.38928">
        <ele>198.677505</ele>
        <time>2016-09-03T06:39:20Z</time>
      </trkpt>
      <trkpt lat="43.9636" lon="1.38931">
        <ele>198.558746</ele>
        <time>2016-09-03T06:39:39Z</time>
      </trkpt>
      <trkpt lat="43.96355" lon="1.38951">
        <ele>197.118744</ele>
        <time>2016-09-03T06:40:02Z</time>
      </trkpt>
      <trkpt lat="43.9636" lon="1.3896">
        <ele>196.013748</ele>
        <time>2016-09-03T06:40:05Z</time>
      </trkpt>
      <trkpt lat="43.96383" lon="1.38986">
        <ele>194.042633</ele>
        <time>2016-09-03T06:40:16Z</time>
      </trkpt>
      <trkpt lat="43.96463" lon="1.39121">
        <ele>190.063156</ele>
        <time>2016-09-03T06:40:49Z</time>
      </trkpt>
      <trkpt lat="43.96472" lon="1.39138">
        <ele>189.536133</ele>
        <time>2016-09-03T06:40:52Z</time>
      </trkpt>
      <trkpt lat="43.96478" lon="1.39157">
        <ele>188.736496</ele>
        <time>2016-09-03T06:40:59Z</time>
      </trkpt>
      <trkpt lat="43.96478" lon="1.39158">
        <ele>188.574799</ele>
        <time>2016-09-03T06:42:04Z</time>
      </trkpt>
      <trkpt lat="43.9648" lon="1.3916">
        <ele>188.708908</ele>
        <time>2016-09-03T06:42:28Z</time>
      </trkpt>
      <trkpt lat="43.96528" lon="1.39273">
        <ele>181.745621</ele>
        <time>2016-09-03T06:42:47Z</time>
      </trkpt>
      <trkpt lat="43.96534" lon="1.39279">
        <ele>180.858032</ele>
        <time>2016-09-03T06:42:48Z</time>
      </trkpt>
      <trkpt lat="43.96541" lon="1.39281">
        <ele>179.930283</ele>
        <time>2016-09-03T06:42:49Z</time>
      </trkpt>
      <trkpt lat="43.96548" lon="1.39281">
        <ele>179.137711</ele>
        <time>2016-09-03T06:42:50Z</time>
      </trkpt>
      <trkpt lat="43.96555" lon="1.39277">
        <ele>178.409332</ele>
        <time>2016-09-03T06:42:51Z</time>
      </trkpt>
      <trkpt lat="43.96618" lon="1.39229">
        <ele>175.07579</ele>
        <time>2016-09-03T06:42:59Z</time>
      </trkpt>
      <trkpt lat="43.96627" lon="1.39225">
        <ele>175.106094</ele>
        <time>2016-09-03T06:43:00Z</time>
      </trkpt>
      <trkpt lat="43.96635" lon="1.39222">
        <ele>175.038788</ele>
        <time>2016-09-03T06:43:01Z</time>
      </trkpt>
      <trkpt lat="43.96644" lon="1.39222">
        <ele>175.053192</ele>
        <time>2016-09-03T06:43:02Z</time>
      </trkpt>
      <trkpt lat="43.96652" lon="1.39224">
        <ele>175.638123</ele>
        <time>2016-09-03T06:43:03Z</time>
      </trkpt>
      <trkpt lat="43.9666" lon="1.39228">
        <ele>176.078873</ele>
        <time>2016-09-03T06:43:04Z</time>
      </trkpt>
      <trkpt lat="43.96672" lon="1.39238">
        <ele>176.610413</ele>
        <time>2016-09-03T06:43:06Z</time>
      </trkpt>
      <trkpt lat="43.96682" lon="1.39249">
        <ele>176.838654</ele>
        <time>2016-09-03T06:43:08Z</time>
      </trkpt>
      <trkpt lat="43.96733" lon="1.39333">
        <ele>177.514267</ele>
        <time>2016-09-03T06:43:21Z</time>
      </trkpt>
      <trkpt lat="43.96813" lon="1.39449">
        <ele>176.146286</ele>
        <time>2016-09-03T06:43:38Z</time>
      </trkpt>
      <trkpt lat="43.96887" lon="1.39544">
        <ele>174</ele>
        <time>2016-09-03T06:43:54Z</time>
      </trkpt>
      <trkpt lat="43.96943" lon="1.39636">
        <ele>171.721252</ele>
        <time>2016-09-03T06:44:08Z</time>
      </trkpt>
      <trkpt lat="43.96986" lon="1.39676">
        <ele>170.104095</ele>
        <time>2016-09-03T06:44:16Z</time>
      </trkpt>
      <trkpt lat="43.96998" lon="1.39681">
        <ele>169.975693</ele>
        <time>2016-09-03T06:44:18Z</time>
      </trkpt>
      <trkpt lat="43.9701" lon="1.39684">
        <ele>170.07663</ele>
        <time>2016-09-03T06:44:20Z</time>
      </trkpt>
      <trkpt lat="43.97031" lon="1.39682">
        <ele>170.598053</ele>
        <time>2016-09-03T06:44:23Z</time>
      </trkpt>
      <trkpt lat="43.97134" lon="1.39649">
        <ele>166.828461</ele>
        <time>2016-09-03T06:44:35Z</time>
      </trkpt>
      <trkpt lat="43.97185" lon="1.39628">
        <ele>162.420883</ele>
        <time>2016-09-03T06:44:43Z</time>
      </trkpt>
      <trkpt lat="43.97265" lon="1.39556">
        <ele>159.637543</ele>
        <time>2016-09-03T06:44:56Z</time>
      </trkpt>
      <trkpt lat="43.97407" lon="1.39419">
        <ele>159.107758</ele>
        <time>2016-09-03T06:45:25Z</time>
      </trkpt>
      <trkpt lat="43.97416" lon="1.39403">
        <ele>158.505341</ele>
        <time>2016-09-03T06:45:28Z</time>
      </trkpt>
      <trkpt lat="43.97424" lon="1.39393">
        <ele>158.340958</ele>
        <time>2016-09-03T06:45:30Z</time>
      </trkpt>
      <trkpt lat="43.97479" lon="1.39336">
        <ele>159.836487</ele>
        <time>2016-09-03T06:45:44Z</time>
      </trkpt>
      <trkpt lat="43.9748" lon="1.39333">
        <ele>159.692047</ele>
        <time>2016-09-03T06:45:45Z</time>
      </trkpt>
      <trkpt lat="43.97474" lon="1.39318">
        <ele>158.24086</ele>
        <time>2016-09-03T06:45:48Z</time>
      </trkpt>
      <trkpt lat="43.97396" lon="1.39211">
        <ele>140.696564</ele>
        <time>2016-09-03T06:46:02Z</time>
      </trkpt>
      <trkpt lat="43.97396" lon="1.39194">
        <ele>140.060165</ele>
        <time>2016-09-03T06:46:05Z</time>
      </trkpt>
      <trkpt lat="43.97391" lon="1.39143">
        <ele>138.104248</ele>
        <time>2016-09-03T06:46:14Z</time>
      </trkpt>
      <trkpt lat="43.97397" lon="1.39133">
        <ele>137.587601</ele>
        <time>2016-09-03T06:46:18Z</time>
      </trkpt>
      <trkpt lat="43.97445" lon="1.39086">
        <ele>136.735565</ele>
        <time>2016-09-03T06:46:33Z</time>
      </trkpt>
      <trkpt lat="43.97456" lon="1.39056">
        <ele>136.231476</ele>
        <time>2016-09-03T06:46:41Z</time>
      </trkpt>
      <trkpt lat="43.97453" lon="1.39043">
        <ele>135.976685</ele>
        <time>2016-09-03T06:46:46Z</time>
      </trkpt>
      <trkpt lat="43.97432" lon="1.39013">
        <ele>140.551514</ele>
        <time>2016-09-03T06:47:02Z</time>
      </trkpt>
      <trkpt lat="43.97413" lon="1.38992">
        <ele>144.547928</ele>
        <time>2016-09-03T06:47:15Z</time>
      </trkpt>
      <trkpt lat="43.9739" lon="1.38988">
        <ele>147.198395</ele>
        <time>2016-09-03T06:47:29Z</time>
      </trkpt>
      <trkpt lat="43.97379" lon="1.38995">
        <ele>147.156219</ele>
        <time>2016-09-03T06:47:35Z</time>
      </trkpt>
      <trkpt lat="43.97369" lon="1.3899">
        <ele>148.728912</ele>
        <time>2016-09-03T06:47:40Z</time>
      </trkpt>
      <trkpt lat="43.97329" lon="1.3893">
        <ele>158.729599</ele>
        <time>2016-09-03T06:48:14Z</time>
      </trkpt>
      <trkpt lat="43.97305" lon="1.38915">
        <ele>161.570114</ele>
        <time>2016-09-03T06:48:29Z</time>
      </trkpt>
      <trkpt lat="43.97284" lon="1.38904">
        <ele>163.301071</ele>
        <time>2016-09-03T06:48:43Z</time>
      </trkpt>
      <trkpt lat="43.9726" lon="1.38888">
        <ele>165.706253</ele>
        <time>2016-09-03T06:48:59Z</time>
      </trkpt>
      <trkpt lat="43.97251" lon="1.3886">
        <ele>169.113129</ele>
        <time>2016-09-03T06:49:12Z</time>
      </trkpt>
      <trkpt lat="43.97226" lon="1.38776">
        <ele>171.688751</ele>
        <time>2016-09-03T06:49:41Z</time>
      </trkpt>
      <trkpt lat="43.9715" lon="1.38677">
        <ele>172.462173</ele>
        <time>2016-09-03T06:50:14Z</time>
      </trkpt>
      <trkpt lat="43.97115" lon="1.38617">
        <ele>175.217194</ele>
        <time>2016-09-03T06:50:30Z</time>
      </trkpt>
      <trkpt lat="43.97091" lon="1.38561">
        <ele>177.419708</ele>
        <time>2016-09-03T06:50:44Z</time>
      </trkpt>
      <trkpt lat="43.97062" lon="1.38489">
        <ele>181.134293</ele>
        <time>2016-09-03T06:51:02Z</time>
      </trkpt>
      <trkpt lat="43.97035" lon="1.3843">
        <ele>183.400452</ele>
        <time>2016-09-03T06:51:19Z</time>
      </trkpt>
      <trkpt lat="43.97011" lon="1.38387">
        <ele>184.091202</ele>
        <time>2016-09-03T06:51:34Z</time>
      </trkpt>
      <trkpt lat="43.97006" lon="1.38383">
        <ele>184.191711</ele>
        <time>2016-09-03T06:51:37Z</time>
      </trkpt>
      <trkpt lat="43.97" lon="1.38385">
        <ele>184.439423</ele>
        <time>2016-09-03T06:51:39Z</time>
      </trkpt>
      <trkpt lat="43.96859" lon="1.38509">
        <ele>192.264999</ele>
        <time>2016-09-03T06:52:34Z</time>
      </trkpt>
      <trkpt lat="43.96823" lon="1.38551">
        <ele>192.883347</ele>
        <time>2016-09-03T06:52:50Z</time>
      </trkpt>
      <trkpt lat="43.9671" lon="1.38722">
        <ele>195.38269</ele>
        <time>2016-09-03T06:53:39Z</time>
      </trkpt>
      <trkpt lat="43.9669" lon="1.38747">
        <ele>196.625626</ele>
        <time>2016-09-03T06:53:46Z</time>
      </trkpt>
      <trkpt lat="43.96625" lon="1.38802">
        <ele>195.313065</ele>
        <time>2016-09-03T06:54:01Z</time>
      </trkpt>
      <trkpt lat="43.96583" lon="1.38819">
        <ele>193.874832</ele>
        <time>2016-09-03T06:54:09Z</time>
      </trkpt>
      <trkpt lat="43.96578" lon="1.38819">
        <ele>193.74324</ele>
        <time>2016-09-03T06:54:10Z</time>
      </trkpt>
      <trkpt lat="43.96574" lon="1.38818">
        <ele>193.538498</ele>
        <time>2016-09-03T06:54:11Z</time>
      </trkpt>
      <trkpt lat="43.96565" lon="1.3881">
        <ele>192.892273</ele>
        <time>2016-09-03T06:54:13Z</time>
      </trkpt>
      <trkpt lat="43.96498" lon="1.38724">
        <ele>187.703659</ele>
        <time>2016-09-03T06:54:27Z</time>
      </trkpt>
      <trkpt lat="43.96454" lon="1.38686">
        <ele>191.419998</ele>
        <time>2016-09-03T06:54:40Z</time>
      </trkpt>
      <trkpt lat="43.96439" lon="1.3867">
        <ele>193.837219</ele>
        <time>2016-09-03T06:54:48Z</time>
      </trkpt>
      <trkpt lat="43.96438" lon="1.38667">
        <ele>193.899246</ele>
        <time>2016-09-03T06:54:49Z</time>
      </trkpt>
      <trkpt lat="43.96459" lon="1.38604">
        <ele>192.29451</ele>
        <time>2016-09-03T06:55:09Z</time>
      </trkpt>
      <trkpt lat="43.96458" lon="1.386">
        <ele>192.522903</ele>
        <time>2016-09-03T06:55:15Z</time>
      </trkpt>
      <trkpt lat="43.96462" lon="1.38587">
        <ele>192.332794</ele>
        <time>2016-09-03T06:55:20Z</time>
      </trkpt>
      <trkpt lat="43.96484" lon="1.38532">
        <ele>190.491257</ele>
        <time>2016-09-03T06:55:36Z</time>
      </trkpt>
      <trkpt lat="43.96502" lon="1.38484">
        <ele>189.228745</ele>
        <time>2016-09-03T06:55:49Z</time>
      </trkpt>
      <trkpt lat="43.96518" lon="1.38423">
        <ele>188.805634</ele>
        <time>2016-09-03T06:56:02Z</time>
      </trkpt>
      <trkpt lat="43.9652" lon="1.38346">
        <ele>189.448013</ele>
        <time>2016-09-03T06:56:16Z</time>
      </trkpt>
      <trkpt lat="43.96517" lon="1.3827">
        <ele>190.255493</ele>
        <time>2016-09-03T06:56:32Z</time>
      </trkpt>
      <trkpt lat="43.96499" lon="1.3823">
        <ele>191.393784</ele>
        <time>2016-09-03T06:56:44Z</time>
      </trkpt>
      <trkpt lat="43.96498" lon="1.38223">
        <ele>191.162384</ele>
        <time>2016-09-03T06:56:45Z</time>
      </trkpt>
      <trkpt lat="43.96497" lon="1.38214">
        <ele>190.864532</ele>
        <time>2016-09-03T06:56:46Z</time>
      </trkpt>
      <trkpt lat="43.96507" lon="1.381">
        <ele>187.331024</ele>
        <time>2016-09-03T06:56:57Z</time>
      </trkpt>
      <trkpt lat="43.96496" lon="1.38028">
        <ele>185.951904</ele>
        <time>2016-09-03T06:57:04Z</time>
      </trkpt>
      <trkpt lat="43.96492" lon="1.38019">
        <ele>185.445053</ele>
        <time>2016-09-03T06:57:05Z</time>
      </trkpt>
      <trkpt lat="43.96487" lon="1.38011">
        <ele>184.67067</ele>
        <time>2016-09-03T06:57:06Z</time>
      </trkpt>
      <trkpt lat="43.9648" lon="1.38005">
        <ele>183.614456</ele>
        <time>2016-09-03T06:57:07Z</time>
      </trkpt>
      <trkpt lat="43.96473" lon="1.37999">
        <ele>182.27916</ele>
        <time>2016-09-03T06:57:08Z</time>
      </trkpt>
      <trkpt lat="43.96367" lon="1.37941">
        <ele>165.764694</ele>
        <time>2016-09-03T06:57:20Z</time>
      </trkpt>
      <trkpt lat="43.96333" lon="1.37921">
        <ele>162.743729</ele>
        <time>2016-09-03T06:57:27Z</time>
      </trkpt>
      <trkpt lat="43.96324" lon="1.37908">
        <ele>163.027298</ele>
        <time>2016-09-03T06:57:30Z</time>
      </trkpt>
      <trkpt lat="43.96319" lon="1.37895">
        <ele>164.103638</ele>
        <time>2016-09-03T06:57:32Z</time>
      </trkpt>
      <trkpt lat="43.96318" lon="1.3788">
        <ele>165.894745</ele>
        <time>2016-09-03T06:57:34Z</time>
      </trkpt>
      <trkpt lat="43.96321" lon="1.37866">
        <ele>165.796799</ele>
        <time>2016-09-03T06:57:36Z</time>
      </trkpt>
      <trkpt lat="43.96324" lon="1.37859">
        <ele>165.637222</ele>
        <time>2016-09-03T06:57:37Z</time>
      </trkpt>
      <trkpt lat="43.96345" lon="1.37818">
        <ele>165.498001</ele>
        <time>2016-09-03T06:57:47Z</time>
      </trkpt>
      <trkpt lat="43.9634" lon="1.37813">
        <ele>164.521072</ele>
        <time>2016-09-03T06:57:50Z</time>
      </trkpt>
      <trkpt lat="43.96338" lon="1.37813">
        <ele>164.291168</ele>
        <time>2016-09-03T06:57:51Z</time>
      </trkpt>
      <trkpt lat="43.96296" lon="1.37838">
        <ele>161.854492</ele>
        <time>2016-09-03T06:58:01Z</time>
      </trkpt>
      <trkpt lat="43.96274" lon="1.37824">
        <ele>159.551987</ele>
        <time>2016-09-03T06:58:08Z</time>
      </trkpt>
      <trkpt lat="43.96271" lon="1.37817">
        <ele>159.065308</ele>
        <time>2016-09-03T06:58:10Z</time>
      </trkpt>
      <trkpt lat="43.96262" lon="1.37815">
        <ele>157.248032</ele>
        <time>2016-09-03T06:58:14Z</time>
      </trkpt>
      <trkpt lat="43.96245" lon="1.37828">
        <ele>154.184067</ele>
        <time>2016-09-03T06:58:20Z</time>
      </trkpt>
      <trkpt lat="43.9622" lon="1.37843">
        <ele>149.093048</ele>
        <time>2016-09-03T06:58:30Z</time>
      </trkpt>
      <trkpt lat="43.96217" lon="1.37846">
        <ele>148.495193</ele>
        <time>2016-09-03T06:58:45Z</time>
      </trkpt>
      <trkpt lat="43.96213" lon="1.37856">
        <ele>147.533218</ele>
        <time>2016-09-03T06:59:15Z</time>
      </trkpt>
      <trkpt lat="43.96189" lon="1.37835">
        <ele>141.881851</ele>
        <time>2016-09-03T06:59:57Z</time>
      </trkpt>
      <trkpt lat="43.96154" lon="1.37837">
        <ele>133.06604</ele>
        <time>2016-09-03T07:00:03Z</time>
      </trkpt>
      <trkpt lat="43.96134" lon="1.37836">
        <ele>127.94677</ele>
        <time>2016-09-03T07:00:08Z</time>
      </trkpt>
      <trkpt lat="43.96107" lon="1.37818">
        <ele>121.891403</ele>
        <time>2016-09-03T07:00:14Z</time>
      </trkpt>
      <trkpt lat="43.96085" lon="1.37787">
        <ele>120.003021</ele>
        <time>2016-09-03T07:00:21Z</time>
      </trkpt>
      <trkpt lat="43.96078" lon="1.37789">
        <ele>119.821953</ele>
        <time>2016-09-03T07:00:23Z</time>
      </trkpt>
      <trkpt lat="43.96069" lon="1.37788">
        <ele>119.823898</ele>
        <time>2016-09-03T07:00:25Z</time>
      </trkpt>
      <trkpt lat="43.96046" lon="1.3778">
        <ele>119.95919</ele>
        <time>2016-09-03T07:00:30Z</time>
      </trkpt>
      <trkpt lat="43.96021" lon="1.37764">
        <ele>118.533974</ele>
        <time>2016-09-03T07:00:36Z</time>
      </trkpt>
      <trkpt lat="43.95986" lon="1.37737">
        <ele>119.531067</ele>
        <time>2016-09-03T07:00:44Z</time>
      </trkpt>
      <trkpt lat="43.95977" lon="1.37728">
        <ele>119.435219</ele>
        <time>2016-09-03T07:00:46Z</time>
      </trkpt>
      <trkpt lat="43.95916" lon="1.37649">
        <ele>109.52343</ele>
        <time>2016-09-03T07:00:59Z</time>
      </trkpt>
      <trkpt lat="43.95911" lon="1.37644">
        <ele>107.823776</ele>
        <time>2016-09-03T07:01:00Z</time>
      </trkpt>
      <trkpt lat="43.95885" lon="1.37631">
        <ele>106.516556</ele>
        <time>2016-09-03T07:01:04Z</time>
      </trkpt>
      <trkpt lat="43.9588" lon="1.37625">
        <ele>106.525612</ele>
        <time>2016-09-03T07:01:05Z</time>
      </trkpt>
      <trkpt lat="43.95876" lon="1.37618">
        <ele>106.616905</ele>
        <time>2016-09-03T07:01:06Z</time>
      </trkpt>
      <trkpt lat="43.95868" lon="1.37596">
        <ele>107.184814</ele>
        <time>2016-09-03T07:01:10Z</time>
      </trkpt>
      <trkpt lat="43.95866" lon="1.37595">
        <ele>107.275627</ele>
        <time>2016-09-03T07:01:11Z</time>
      </trkpt>
      <trkpt lat="43.9586" lon="1.37595">
        <ele>107.776253</ele>
        <time>2016-09-03T07:01:13Z</time>
      </trkpt>
      <trkpt lat="43.95853" lon="1.3759">
        <ele>108.902496</ele>
        <time>2016-09-03T07:01:17Z</time>
      </trkpt>
      <trkpt lat="43.95851" lon="1.37585">
        <ele>109.282501</ele>
        <time>2016-09-03T07:01:20Z</time>
      </trkpt>
      <trkpt lat="43.95849" lon="1.37576">
        <ele>109.801254</ele>
        <time>2016-09-03T07:01:24Z</time>
      </trkpt>
      <trkpt lat="43.95844" lon="1.37558">
        <ele>110.079407</ele>
        <time>2016-09-03T07:01:31Z</time>
      </trkpt>
      <trkpt lat="43.9584" lon="1.37555">
        <ele>110.40564</ele>
        <time>2016-09-03T07:01:34Z</time>
      </trkpt>
      <trkpt lat="43.95836" lon="1.37555">
        <ele>110.937584</ele>
        <time>2016-09-03T07:01:47Z</time>
      </trkpt>
      <trkpt lat="43.95836" lon="1.37552">
        <ele>110.855247</ele>
        <time>2016-09-03T07:02:04Z</time>
      </trkpt>
      <trkpt lat="43.95833" lon="1.37553">
        <ele>111.169968</ele>
        <time>2016-09-03T07:02:31Z</time>
      </trkpt>
      <trkpt lat="43.95823" lon="1.37576">
        <ele>113.302498</ele>
        <time>2016-09-03T07:02:43Z</time>
      </trkpt>
      <trkpt lat="43.95812" lon="1.37611">
        <ele>114.219543</ele>
        <time>2016-09-03T07:02:58Z</time>
      </trkpt>
      <trkpt lat="43.958" lon="1.37644">
        <ele>116.820183</ele>
        <time>2016-09-03T07:03:12Z</time>
      </trkpt>
      <trkpt lat="43.95794" lon="1.37649">
        <ele>118.117096</ele>
        <time>2016-09-03T07:03:16Z</time>
      </trkpt>
      <trkpt lat="43.95722" lon="1.37689">
        <ele>134.568039</ele>
        <time>2016-09-03T07:04:10Z</time>
      </trkpt>
      <trkpt lat="43.95704" lon="1.37689">
        <ele>137.513901</ele>
        <time>2016-09-03T07:04:25Z</time>
      </trkpt>
      <trkpt lat="43.95695" lon="1.37684">
        <ele>138.461075</ele>
        <time>2016-09-03T07:04:35Z</time>
      </trkpt>
      <trkpt lat="43.95671" lon="1.37681">
        <ele>140.888062</ele>
        <time>2016-09-03T07:04:48Z</time>
      </trkpt>
      <trkpt lat="43.95643" lon="1.37683">
        <ele>143.621216</ele>
        <time>2016-09-03T07:05:02Z</time>
      </trkpt>
      <trkpt lat="43.95615" lon="1.37682">
        <ele>144.946472</ele>
        <time>2016-09-03T07:05:15Z</time>
      </trkpt>
      <trkpt lat="43.95608" lon="1.37683">
        <ele>145.435272</ele>
        <time>2016-09-03T07:05:19Z</time>
      </trkpt>
      <trkpt lat="43.95573" lon="1.37716">
        <ele>151.559128</ele>
        <time>2016-09-03T07:05:49Z</time>
      </trkpt>
      <trkpt lat="43.95559" lon="1.37735">
        <ele>154.615005</ele>
        <time>2016-09-03T07:06:04Z</time>
      </trkpt>
      <trkpt lat="43.95555" lon="1.37743">
        <ele>156.023117</ele>
        <time>2016-09-03T07:06:09Z</time>
      </trkpt>
      <trkpt lat="43.95541" lon="1.37763">
        <ele>159.349136</ele>
        <time>2016-09-03T07:06:24Z</time>
      </trkpt>
      <trkpt lat="43.95511" lon="1.37804">
        <ele>162.418213</ele>
        <time>2016-09-03T07:06:54Z</time>
      </trkpt>
      <trkpt lat="43.95511" lon="1.37805">
        <ele>162.493561</ele>
        <time>2016-09-03T07:07:05Z</time>
      </trkpt>
      <trkpt lat="43.95511" lon="1.37804">
        <ele>162.491165</ele>
        <time>2016-09-03T07:07:45Z</time>
      </trkpt>
      <trkpt lat="43.95511" lon="1.37805">
        <ele>162.535248</ele>
        <time>2016-09-03T07:08:02Z</time>
      </trkpt>
      <trkpt lat="43.95511" lon="1.37804">
        <ele>162.414764</ele>
        <time>2016-09-03T07:08:22Z</time>
      </trkpt>
      <trkpt lat="43.95511" lon="1.37804">
        <ele>162.449066</ele>
        <time>2016-09-03T07:08:51Z</time>
      </trkpt>
      <trkpt lat="43.955" lon="1.37818">
        <ele>164.195969</ele>
        <time>2016-09-03T07:09:03Z</time>
      </trkpt>
      <trkpt lat="43.95481" lon="1.37836">
        <ele>166.442383</ele>
        <time>2016-09-03T07:09:15Z</time>
      </trkpt>
      <trkpt lat="43.95454" lon="1.37853">
        <ele>169.102814</ele>
        <time>2016-09-03T07:09:30Z</time>
      </trkpt>
      <trkpt lat="43.95447" lon="1.37859">
        <ele>170.172287</ele>
        <time>2016-09-03T07:09:35Z</time>
      </trkpt>
      <trkpt lat="43.95438" lon="1.37861">
        <ele>171.111069</ele>
        <time>2016-09-03T07:09:40Z</time>
      </trkpt>
      <trkpt lat="43.95431" lon="1.37855">
        <ele>171.437775</ele>
        <time>2016-09-03T07:09:44Z</time>
      </trkpt>
      <trkpt lat="43.95382" lon="1.37777">
        <ele>173.685623</ele>
        <time>2016-09-03T07:10:12Z</time>
      </trkpt>
      <trkpt lat="43.95363" lon="1.3775">
        <ele>175.271362</ele>
        <time>2016-09-03T07:10:25Z</time>
      </trkpt>
      <trkpt lat="43.95357" lon="1.37754">
        <ele>175.798401</ele>
        <time>2016-09-03T07:10:28Z</time>
      </trkpt>
      <trkpt lat="43.95354" lon="1.37759">
        <ele>176.14917</ele>
        <time>2016-09-03T07:10:30Z</time>
      </trkpt>
      <trkpt lat="43.95336" lon="1.37809">
        <ele>178.249481</ele>
        <time>2016-09-03T07:10:46Z</time>
      </trkpt>
      <trkpt lat="43.95311" lon="1.37867">
        <ele>178.811768</ele>
        <time>2016-09-03T07:11:03Z</time>
      </trkpt>
      <trkpt lat="43.95287" lon="1.37934">
        <ele>180.878052</ele>
        <time>2016-09-03T07:11:21Z</time>
      </trkpt>
      <trkpt lat="43.95169" lon="1.38242">
        <ele>188.042801</ele>
        <time>2016-09-03T07:12:32Z</time>
      </trkpt>
      <trkpt lat="43.95163" lon="1.38255">
        <ele>186.445892</ele>
        <time>2016-09-03T07:12:36Z</time>
      </trkpt>
      <trkpt lat="43.9516" lon="1.38256">
        <ele>185.958603</ele>
        <time>2016-09-03T07:12:37Z</time>
      </trkpt>
      <trkpt lat="43.95157" lon="1.38254">
        <ele>185.658783</ele>
        <time>2016-09-03T07:12:38Z</time>
      </trkpt>
      <trkpt lat="43.95098" lon="1.38181">
        <ele>180.449402</ele>
        <time>2016-09-03T07:12:54Z</time>
      </trkpt>
      <trkpt lat="43.95041" lon="1.38089">
        <ele>176.45813</ele>
        <time>2016-09-03T07:13:06Z</time>
      </trkpt>
      <trkpt lat="43.95036" lon="1.38075">
        <ele>174.797104</ele>
        <time>2016-09-03T07:13:08Z</time>
      </trkpt>
      <trkpt lat="43.95019" lon="1.38047">
        <ele>171.349533</ele>
        <time>2016-09-03T07:13:13Z</time>
      </trkpt>
      <trkpt lat="43.95009" lon="1.38028">
        <ele>168.266388</ele>
        <time>2016-09-03T07:13:16Z</time>
      </trkpt>
      <trkpt lat="43.94996" lon="1.37994">
        <ele>163.123505</ele>
        <time>2016-09-03T07:13:20Z</time>
      </trkpt>
      <trkpt lat="43.9498" lon="1.3794">
        <ele>158.694153</ele>
        <time>2016-09-03T07:13:28Z</time>
      </trkpt>
      <trkpt lat="43.94976" lon="1.37933">
        <ele>158.134247</ele>
        <time>2016-09-03T07:13:29Z</time>
      </trkpt>
      <trkpt lat="43.94928" lon="1.37867">
        <ele>147.316559</ele>
        <time>2016-09-03T07:13:39Z</time>
      </trkpt>
      <trkpt lat="43.94913" lon="1.37863">
        <ele>144.404068</ele>
        <time>2016-09-03T07:13:42Z</time>
      </trkpt>
      <trkpt lat="43.94901" lon="1.37856">
        <ele>142.32782</ele>
        <time>2016-09-03T07:13:44Z</time>
      </trkpt>
      <trkpt lat="43.94888" lon="1.37843">
        <ele>140.764725</ele>
        <time>2016-09-03T07:13:46Z</time>
      </trkpt>
      <trkpt lat="43.94876" lon="1.37827">
        <ele>139.216553</ele>
        <time>2016-09-03T07:13:48Z</time>
      </trkpt>
      <trkpt lat="43.94871" lon="1.37817">
        <ele>138.265717</ele>
        <time>2016-09-03T07:13:49Z</time>
      </trkpt>
      <trkpt lat="43.94867" lon="1.37806">
        <ele>137.728485</ele>
        <time>2016-09-03T07:13:50Z</time>
      </trkpt>
      <trkpt lat="43.94862" lon="1.37782">
        <ele>137.638321</ele>
        <time>2016-09-03T07:13:52Z</time>
      </trkpt>
      <trkpt lat="43.9484" lon="1.37615">
        <ele>127.741875</ele>
        <time>2016-09-03T07:14:05Z</time>
      </trkpt>
      <trkpt lat="43.94815" lon="1.37441">
        <ele>116.19957</ele>
        <time>2016-09-03T07:14:18Z</time>
      </trkpt>
      <trkpt lat="43.94777" lon="1.37315">
        <ele>104.556557</ele>
        <time>2016-09-03T07:14:28Z</time>
      </trkpt>
      <trkpt lat="43.94776" lon="1.37297">
        <ele>103.708748</ele>
        <time>2016-09-03T07:14:30Z</time>
      </trkpt>
      <trkpt lat="43.94778" lon="1.37275">
        <ele>103.088387</ele>
        <time>2016-09-03T07:14:33Z</time>
      </trkpt>
      <trkpt lat="43.94774" lon="1.3727">
        <ele>102.080757</ele>
        <time>2016-09-03T07:14:36Z</time>
      </trkpt>
      <trkpt lat="43.94771" lon="1.37272">
        <ele>101.828659</ele>
        <time>2016-09-03T07:14:37Z</time>
      </trkpt>
      <trkpt lat="43.94769" lon="1.3728">
        <ele>101.6437</ele>
        <time>2016-09-03T07:14:39Z</time>
      </trkpt>
      <trkpt lat="43.94766" lon="1.37292">
        <ele>101.671501</ele>
        <time>2016-09-03T07:14:41Z</time>
      </trkpt>
      <trkpt lat="43.94763" lon="1.37484">
        <ele>104.018394</ele>
        <time>2016-09-03T07:15:13Z</time>
      </trkpt>
      <trkpt lat="43.94765" lon="1.37565">
        <ele>106.707428</ele>
        <time>2016-09-03T07:15:29Z</time>
      </trkpt>
      <trkpt lat="43.94747" lon="1.37738">
        <ele>108.0075</ele>
        <time>2016-09-03T07:16:02Z</time>
      </trkpt>
      <trkpt lat="43.94745" lon="1.37814">
        <ele>108.717628</ele>
        <time>2016-09-03T07:16:16Z</time>
      </trkpt>
      <trkpt lat="43.9474" lon="1.37831">
        <ele>108.492073</ele>
        <time>2016-09-03T07:16:19Z</time>
      </trkpt>
      <trkpt lat="43.94694" lon="1.37911">
        <ele>110.996246</ele>
        <time>2016-09-03T07:16:39Z</time>
      </trkpt>
      <trkpt lat="43.94665" lon="1.37984">
        <ele>112.323845</ele>
        <time>2016-09-03T07:16:54Z</time>
      </trkpt>
      <trkpt lat="43.94616" lon="1.38075">
        <ele>112.916252</ele>
        <time>2016-09-03T07:17:11Z</time>
      </trkpt>
      <trkpt lat="43.94579" lon="1.38129">
        <ele>113.815186</ele>
        <time>2016-09-03T07:17:25Z</time>
      </trkpt>
      <trkpt lat="43.94568" lon="1.38138">
        <ele>113.273003</ele>
        <time>2016-09-03T07:17:28Z</time>
      </trkpt>
      <trkpt lat="43.94555" lon="1.38145">
        <ele>112.541336</ele>
        <time>2016-09-03T07:17:31Z</time>
      </trkpt>
      <trkpt lat="43.94544" lon="1.38148">
        <ele>111.365982</ele>
        <time>2016-09-03T07:17:33Z</time>
      </trkpt>
      <trkpt lat="43.94474" lon="1.38147">
        <ele>102.476357</ele>
        <time>2016-09-03T07:17:45Z</time>
      </trkpt>
      <trkpt lat="43.94461" lon="1.38154">
        <ele>102.111717</ele>
        <time>2016-09-03T07:17:47Z</time>
      </trkpt>
      <trkpt lat="43.9445" lon="1.38164">
        <ele>101.577972</ele>
        <time>2016-09-03T07:17:49Z</time>
      </trkpt>
      <trkpt lat="43.94423" lon="1.38197">
        <ele>101.763496</ele>
        <time>2016-09-03T07:17:57Z</time>
      </trkpt>
      <trkpt lat="43.94418" lon="1.382">
        <ele>102.113976</ele>
        <time>2016-09-03T07:18:01Z</time>
      </trkpt>
      <trkpt lat="43.94413" lon="1.38196">
        <ele>102.465324</ele>
        <time>2016-09-03T07:18:04Z</time>
      </trkpt>
      <trkpt lat="43.94407" lon="1.38196">
        <ele>102.94487</ele>
        <time>2016-09-03T07:18:07Z</time>
      </trkpt>
      <trkpt lat="43.94405" lon="1.38203">
        <ele>102.97319</ele>
        <time>2016-09-03T07:18:10Z</time>
      </trkpt>
      <trkpt lat="43.94402" lon="1.38206">
        <ele>103.017754</ele>
        <time>2016-09-03T07:18:13Z</time>
      </trkpt>
      <trkpt lat="43.94398" lon="1.38209">
        <ele>103.174179</ele>
        <time>2016-09-03T07:18:16Z</time>
      </trkpt>
      <trkpt lat="43.94388" lon="1.38206">
        <ele>103.806778</ele>
        <time>2016-09-03T07:18:23Z</time>
      </trkpt>
      <trkpt lat="43.9438" lon="1.38206">
        <ele>104.554886</ele>
        <time>2016-09-03T07:18:28Z</time>
      </trkpt>
      <trkpt lat="43.94363" lon="1.38197">
        <ele>107.237038</ele>
        <time>2016-09-03T07:18:42Z</time>
      </trkpt>
      <trkpt lat="43.94345" lon="1.38191">
        <ele>109.905693</ele>
        <time>2016-09-03T07:18:52Z</time>
      </trkpt>
      <trkpt lat="43.9434" lon="1.38185">
        <ele>110.970337</ele>
        <time>2016-09-03T07:18:56Z</time>
      </trkpt>
      <trkpt lat="43.94336" lon="1.38175">
        <ele>112.063004</ele>
        <time>2016-09-03T07:19:04Z</time>
      </trkpt>
      <trkpt lat="43.94332" lon="1.38149">
        <ele>115.053368</ele>
        <time>2016-09-03T07:19:20Z</time>
      </trkpt>
      <trkpt lat="43.94333" lon="1.38125">
        <ele>118.933052</ele>
        <time>2016-09-03T07:19:34Z</time>
      </trkpt>
      <trkpt lat="43.94346" lon="1.38081">
        <ele>123.812576</ele>
        <time>2016-09-03T07:19:54Z</time>
      </trkpt>
      <trkpt lat="43.94356" lon="1.38049">
        <ele>125.987526</ele>
        <time>2016-09-03T07:20:06Z</time>
      </trkpt>
      <trkpt lat="43.94368" lon="1.38017">
        <ele>126.815498</ele>
        <time>2016-09-03T07:20:16Z</time>
      </trkpt>
      <trkpt lat="43.94379" lon="1.37996">
        <ele>126.562187</ele>
        <time>2016-09-03T07:20:28Z</time>
      </trkpt>
      <trkpt lat="43.94383" lon="1.37993">
        <ele>126.346252</ele>
        <time>2016-09-03T07:21:08Z</time>
      </trkpt>
      <trkpt lat="43.94389" lon="1.37993">
        <ele>125.696251</ele>
        <time>2016-09-03T07:21:13Z</time>
      </trkpt>
      <trkpt lat="43.94424" lon="1.38018">
        <ele>121.0075</ele>
        <time>2016-09-03T07:21:26Z</time>
      </trkpt>
      <trkpt lat="43.94438" lon="1.38027">
        <ele>118.433052</ele>
        <time>2016-09-03T07:21:30Z</time>
      </trkpt>
      <trkpt lat="43.94445" lon="1.38037">
        <ele>116.131424</ele>
        <time>2016-09-03T07:21:41Z</time>
      </trkpt>
      <trkpt lat="43.94443" lon="1.38049">
        <ele>114.085968</ele>
        <time>2016-09-03T07:21:45Z</time>
      </trkpt>
      <trkpt lat="43.94426" lon="1.38103">
        <ele>106.928154</ele>
        <time>2016-09-03T07:22:02Z</time>
      </trkpt>
      <trkpt lat="43.94417" lon="1.38141">
        <ele>104.130669</ele>
        <time>2016-09-03T07:22:13Z</time>
      </trkpt>
      <trkpt lat="43.94414" lon="1.38151">
        <ele>103.508247</ele>
        <time>2016-09-03T07:22:20Z</time>
      </trkpt>
      <trkpt lat="43.94408" lon="1.38184">
        <ele>103.049889</ele>
        <time>2016-09-03T07:22:32Z</time>
      </trkpt>
      <trkpt lat="43.94409" lon="1.38193">
        <ele>102.803497</ele>
        <time>2016-09-03T07:22:39Z</time>
      </trkpt>
      <trkpt lat="43.94414" lon="1.38198">
        <ele>102.44207</ele>
        <time>2016-09-03T07:22:42Z</time>
      </trkpt>
      <trkpt lat="43.94414" lon="1.382">
        <ele>102.3825</ele>
        <time>2016-09-03T07:22:43Z</time>
      </trkpt>
      <trkpt lat="43.94404" lon="1.38257">
        <ele>104.018341</ele>
        <time>2016-09-03T07:22:57Z</time>
      </trkpt>
      <trkpt lat="43.94372" lon="1.38336">
        <ele>105.488647</ele>
        <time>2016-09-03T07:23:23Z</time>
      </trkpt>
      <trkpt lat="43.94371" lon="1.38385">
        <ele>108.17691</ele>
        <time>2016-09-03T07:23:37Z</time>
      </trkpt>
      <trkpt lat="43.94363" lon="1.38425">
        <ele>109.667206</ele>
        <time>2016-09-03T07:23:49Z</time>
      </trkpt>
      <trkpt lat="43.94343" lon="1.38484">
        <ele>108.656578</ele>
        <time>2016-09-03T07:24:05Z</time>
      </trkpt>
      <trkpt lat="43.94335" lon="1.38526">
        <ele>112.294632</ele>
        <time>2016-09-03T07:24:19Z</time>
      </trkpt>
      <trkpt lat="43.94319" lon="1.38582">
        <ele>115.67572</ele>
        <time>2016-09-03T07:24:35Z</time>
      </trkpt>
      <trkpt lat="43.94304" lon="1.38624">
        <ele>116.245445</ele>
        <time>2016-09-03T07:24:46Z</time>
      </trkpt>
      <trkpt lat="43.94269" lon="1.38705">
        <ele>117.083702</ele>
        <time>2016-09-03T07:25:22Z</time>
      </trkpt>
      <trkpt lat="43.94245" lon="1.38757">
        <ele>118.676819</ele>
        <time>2016-09-03T07:25:35Z</time>
      </trkpt>
      <trkpt lat="43.94201" lon="1.3883">
        <ele>121.496552</ele>
        <time>2016-09-03T07:25:58Z</time>
      </trkpt>
      <trkpt lat="43.94171" lon="1.38876">
        <ele>122.121483</ele>
        <time>2016-09-03T07:26:11Z</time>
      </trkpt>
      <trkpt lat="43.94083" lon="1.38962">
        <ele>122.197502</ele>
        <time>2016-09-03T07:26:38Z</time>
      </trkpt>
      <trkpt lat="43.94039" lon="1.39007">
        <ele>123.979958</ele>
        <time>2016-09-03T07:26:52Z</time>
      </trkpt>
      <trkpt lat="43.94017" lon="1.39044">
        <ele>125.340164</ele>
        <time>2016-09-03T07:27:03Z</time>
      </trkpt>
      <trkpt lat="43.93996" lon="1.39086">
        <ele>126.175484</ele>
        <time>2016-09-03T07:27:17Z</time>
      </trkpt>
      <trkpt lat="43.93977" lon="1.39134">
        <ele>125.874664</ele>
        <time>2016-09-03T07:27:30Z</time>
      </trkpt>
      <trkpt lat="43.93968" lon="1.39175">
        <ele>125.363213</ele>
        <time>2016-09-03T07:27:42Z</time>
      </trkpt>
      <trkpt lat="43.93965" lon="1.3918">
        <ele>124.817749</ele>
        <time>2016-09-03T07:28:05Z</time>
      </trkpt>
      <trkpt lat="43.93957" lon="1.39257">
        <ele>124.131851</ele>
        <time>2016-09-03T07:28:44Z</time>
      </trkpt>
      <trkpt lat="43.93953" lon="1.39278">
        <ele>123.267242</ele>
        <time>2016-09-03T07:28:49Z</time>
      </trkpt>
      <trkpt lat="43.93951" lon="1.39308">
        <ele>121.742851</ele>
        <time>2016-09-03T07:28:53Z</time>
      </trkpt>
      <trkpt lat="43.93951" lon="1.39376">
        <ele>119.499374</ele>
        <time>2016-09-03T07:29:00Z</time>
      </trkpt>
      <trkpt lat="43.93948" lon="1.39397">
        <ele>118.50898</ele>
        <time>2016-09-03T07:29:03Z</time>
      </trkpt>
      <trkpt lat="43.93948" lon="1.39404">
        <ele>118.313667</ele>
        <time>2016-09-03T07:29:04Z</time>
      </trkpt>
      <trkpt lat="43.93951" lon="1.39433">
        <ele>118.420189</ele>
        <time>2016-09-03T07:29:08Z</time>
      </trkpt>
      <trkpt lat="43.93948" lon="1.39464">
        <ele>118.061066</ele>
        <time>2016-09-03T07:29:14Z</time>
      </trkpt>
      <trkpt lat="43.93948" lon="1.39485">
        <ele>118.45433</ele>
        <time>2016-09-03T07:29:18Z</time>
      </trkpt>
      <trkpt lat="43.93939" lon="1.39556">
        <ele>122.051102</ele>
        <time>2016-09-03T07:29:34Z</time>
      </trkpt>
      <trkpt lat="43.93932" lon="1.39595">
        <ele>124.110001</ele>
        <time>2016-09-03T07:29:45Z</time>
      </trkpt>
      <trkpt lat="43.93938" lon="1.39631">
        <ele>126.594872</ele>
        <time>2016-09-03T07:29:57Z</time>
      </trkpt>
      <trkpt lat="43.93949" lon="1.3964">
        <ele>128.997131</ele>
        <time>2016-09-03T07:30:06Z</time>
      </trkpt>
      <trkpt lat="43.9395" lon="1.39642">
        <ele>129.276718</ele>
        <time>2016-09-03T07:30:07Z</time>
      </trkpt>
      <trkpt lat="43.93962" lon="1.39654">
        <ele>133.652893</ele>
        <time>2016-09-03T07:30:17Z</time>
      </trkpt>
      <trkpt lat="43.93965" lon="1.3971">
        <ele>134.940643</ele>
        <time>2016-09-03T07:30:43Z</time>
      </trkpt>
      <trkpt lat="43.93969" lon="1.3973">
        <ele>136.237</ele>
        <time>2016-09-03T07:30:54Z</time>
      </trkpt>
      <trkpt lat="43.93994" lon="1.39782">
        <ele>142.917389</ele>
        <time>2016-09-03T07:31:34Z</time>
      </trkpt>
      <trkpt lat="43.94006" lon="1.39797">
        <ele>145.247604</ele>
        <time>2016-09-03T07:31:49Z</time>
      </trkpt>
      <trkpt lat="43.94019" lon="1.39809">
        <ele>147.957764</ele>
        <time>2016-09-03T07:32:02Z</time>
      </trkpt>
      <trkpt lat="43.94023" lon="1.39809">
        <ele>148.911987</ele>
        <time>2016-09-03T07:32:05Z</time>
      </trkpt>
      <trkpt lat="43.94058" lon="1.3982">
        <ele>157.236938</ele>
        <time>2016-09-03T07:32:34Z</time>
      </trkpt>
      <trkpt lat="43.94086" lon="1.39834">
        <ele>164.136703</ele>
        <time>2016-09-03T07:33:15Z</time>
      </trkpt>
      <trkpt lat="43.94102" lon="1.39833">
        <ele>166.613434</ele>
        <time>2016-09-03T07:33:46Z</time>
      </trkpt>
      <trkpt lat="43.94104" lon="1.39836">
        <ele>166.977219</ele>
        <time>2016-09-03T07:33:49Z</time>
      </trkpt>
      <trkpt lat="43.94109" lon="1.39836">
        <ele>167.660934</ele>
        <time>2016-09-03T07:33:53Z</time>
      </trkpt>
      <trkpt lat="43.94112" lon="1.39837">
        <ele>168.108475</ele>
        <time>2016-09-03T07:33:56Z</time>
      </trkpt>
      <trkpt lat="43.94124" lon="1.39852">
        <ele>170.269745</ele>
        <time>2016-09-03T07:34:09Z</time>
      </trkpt>
      <trkpt lat="43.94125" lon="1.39894">
        <ele>170.821854</ele>
        <time>2016-09-03T07:34:25Z</time>
      </trkpt>
      <trkpt lat="43.9413" lon="1.39983">
        <ele>172.021255</ele>
        <time>2016-09-03T07:34:57Z</time>
      </trkpt>
      <trkpt lat="43.94139" lon="1.4003">
        <ele>173.35463</ele>
        <time>2016-09-03T07:35:13Z</time>
      </trkpt>
      <trkpt lat="43.94141" lon="1.40032">
        <ele>173.531921</ele>
        <time>2016-09-03T07:35:40Z</time>
      </trkpt>
      <trkpt lat="43.94142" lon="1.40031">
        <ele>173.54718</ele>
        <time>2016-09-03T07:36:01Z</time>
      </trkpt>
      <trkpt lat="43.94141" lon="1.40033">
        <ele>173.567245</ele>
        <time>2016-09-03T07:36:23Z</time>
      </trkpt>
      <trkpt lat="43.94142" lon="1.40031">
        <ele>173.522507</ele>
        <time>2016-09-03T07:36:40Z</time>
      </trkpt>
      <trkpt lat="43.94139" lon="1.40033">
        <ele>173.484528</ele>
        <time>2016-09-03T07:38:11Z</time>
      </trkpt>
      <trkpt lat="43.9414" lon="1.40032">
        <ele>173.481003</ele>
        <time>2016-09-03T07:38:46Z</time>
      </trkpt>
      <trkpt lat="43.94141" lon="1.40033">
        <ele>173.556747</ele>
        <time>2016-09-03T07:39:21Z</time>
      </trkpt>
      <trkpt lat="43.94141" lon="1.40031">
        <ele>173.487793</ele>
        <time>2016-09-03T07:41:01Z</time>
      </trkpt>
      <trkpt lat="43.94166" lon="1.40058">
        <ele>176.208221</ele>
        <time>2016-09-03T07:41:19Z</time>
      </trkpt>
      <trkpt lat="43.94207" lon="1.40077">
        <ele>179.855225</ele>
        <time>2016-09-03T07:41:37Z</time>
      </trkpt>
      <trkpt lat="43.94256" lon="1.40086">
        <ele>182.482788</ele>
        <time>2016-09-03T07:41:54Z</time>
      </trkpt>
      <trkpt lat="43.94295" lon="1.40086">
        <ele>184.713882</ele>
        <time>2016-09-03T07:42:09Z</time>
      </trkpt>
      <trkpt lat="43.94351" lon="1.40098">
        <ele>188.736694</ele>
        <time>2016-09-03T07:42:30Z</time>
      </trkpt>
      <trkpt lat="43.94396" lon="1.40127">
        <ele>191.381256</ele>
        <time>2016-09-03T07:42:49Z</time>
      </trkpt>
      <trkpt lat="43.94443" lon="1.40146">
        <ele>192.903229</ele>
        <time>2016-09-03T07:43:08Z</time>
      </trkpt>
      <trkpt lat="43.94479" lon="1.40112">
        <ele>194.247772</ele>
        <time>2016-09-03T07:43:24Z</time>
      </trkpt>
      <trkpt lat="43.94514" lon="1.40083">
        <ele>197.969345</ele>
        <time>2016-09-03T07:43:39Z</time>
      </trkpt>
      <trkpt lat="43.94554" lon="1.40068">
        <ele>202.219452</ele>
        <time>2016-09-03T07:43:55Z</time>
      </trkpt>
      <trkpt lat="43.94593" lon="1.40074">
        <ele>206.361069</ele>
        <time>2016-09-03T07:44:10Z</time>
      </trkpt>
      <trkpt lat="43.94639" lon="1.40072">
        <ele>210.672638</ele>
        <time>2016-09-03T07:44:28Z</time>
      </trkpt>
      <trkpt lat="43.94663" lon="1.40052">
        <ele>211.090561</ele>
        <time>2016-09-03T07:44:39Z</time>
      </trkpt>
      <trkpt lat="43.94667" lon="1.40054">
        <ele>211.03717</ele>
        <time>2016-09-03T07:44:41Z</time>
      </trkpt>
      <trkpt lat="43.94668" lon="1.40061">
        <ele>211.005081</ele>
        <time>2016-09-03T07:44:44Z</time>
      </trkpt>
      <trkpt lat="43.94665" lon="1.40106">
        <ele>210.276947</ele>
        <time>2016-09-03T07:44:58Z</time>
      </trkpt>
      <trkpt lat="43.94666" lon="1.4012">
        <ele>209.970276</ele>
        <time>2016-09-03T07:45:00Z</time>
      </trkpt>
      <trkpt lat="43.94663" lon="1.40226">
        <ele>205.95285</ele>
        <time>2016-09-03T07:45:14Z</time>
      </trkpt>
      <trkpt lat="43.94669" lon="1.40375">
        <ele>198.052109</ele>
        <time>2016-09-03T07:45:29Z</time>
      </trkpt>
      <trkpt lat="43.94662" lon="1.40479">
        <ele>194.717499</ele>
        <time>2016-09-03T07:45:40Z</time>
      </trkpt>
      <trkpt lat="43.94629" lon="1.40601">
        <ele>194.997803</ele>
        <time>2016-09-03T07:45:55Z</time>
      </trkpt>
      <trkpt lat="43.94618" lon="1.40628">
        <ele>195.362503</ele>
        <time>2016-09-03T07:45:59Z</time>
      </trkpt>
      <trkpt lat="43.94573" lon="1.40703">
        <ele>197.838745</ele>
        <time>2016-09-03T07:46:15Z</time>
      </trkpt>
      <trkpt lat="43.94549" lon="1.40732">
        <ele>199.031631</ele>
        <time>2016-09-03T07:46:22Z</time>
      </trkpt>
      <trkpt lat="43.94535" lon="1.40746">
        <ele>199.451996</ele>
        <time>2016-09-03T07:46:25Z</time>
      </trkpt>
      <trkpt lat="43.94493" lon="1.40812">
        <ele>200.192749</ele>
        <time>2016-09-03T07:46:39Z</time>
      </trkpt>
      <trkpt lat="43.94461" lon="1.40899">
        <ele>198.511353</ele>
        <time>2016-09-03T07:46:55Z</time>
      </trkpt>
      <trkpt lat="43.94429" lon="1.40994">
        <ele>191.800888</ele>
        <time>2016-09-03T07:47:07Z</time>
      </trkpt>
      <trkpt lat="43.94404" lon="1.41115">
        <ele>192.172134</ele>
        <time>2016-09-03T07:47:21Z</time>
      </trkpt>
      <trkpt lat="43.94362" lon="1.4121">
        <ele>194.002182</ele>
        <time>2016-09-03T07:47:34Z</time>
      </trkpt>
      <trkpt lat="43.94317" lon="1.41295">
        <ele>194.697754</ele>
        <time>2016-09-03T07:47:48Z</time>
      </trkpt>
      <trkpt lat="43.94266" lon="1.41353">
        <ele>196.279053</ele>
        <time>2016-09-03T07:48:02Z</time>
      </trkpt>
      <trkpt lat="43.94215" lon="1.41405">
        <ele>198.882263</ele>
        <time>2016-09-03T07:48:13Z</time>
      </trkpt>
      <trkpt lat="43.94128" lon="1.41485">
        <ele>201.531876</ele>
        <time>2016-09-03T07:48:38Z</time>
      </trkpt>
      <trkpt lat="43.94099" lon="1.41509">
        <ele>201.768539</ele>
        <time>2016-09-03T07:48:49Z</time>
      </trkpt>
      <trkpt lat="43.94098" lon="1.41508">
        <ele>201.68782</ele>
        <time>2016-09-03T07:48:50Z</time>
      </trkpt>
      <trkpt lat="43.941" lon="1.41487">
        <ele>201.419785</ele>
        <time>2016-09-03T07:48:55Z</time>
      </trkpt>
      <trkpt lat="43.94105" lon="1.41464">
        <ele>201.174667</ele>
        <time>2016-09-03T07:48:59Z</time>
      </trkpt>
      <trkpt lat="43.94113" lon="1.41397">
        <ele>199.338745</ele>
        <time>2016-09-03T07:49:13Z</time>
      </trkpt>
      <trkpt lat="43.94117" lon="1.41337">
        <ele>198.742493</ele>
        <time>2016-09-03T07:49:25Z</time>
      </trkpt>
      <trkpt lat="43.94115" lon="1.41238">
        <ele>196.268356</ele>
        <time>2016-09-03T07:49:37Z</time>
      </trkpt>
      <trkpt lat="43.94089" lon="1.41205">
        <ele>192.288635</ele>
        <time>2016-09-03T07:49:44Z</time>
      </trkpt>
      <trkpt lat="43.94059" lon="1.41201">
        <ele>186.219604</ele>
        <time>2016-09-03T07:49:49Z</time>
      </trkpt>
      <trkpt lat="43.94048" lon="1.41186">
        <ele>183.662399</ele>
        <time>2016-09-03T07:49:54Z</time>
      </trkpt>
      <trkpt lat="43.94053" lon="1.41109">
        <ele>183.588303</ele>
        <time>2016-09-03T07:50:05Z</time>
      </trkpt>
      <trkpt lat="43.94053" lon="1.41028">
        <ele>182.402496</ele>
        <time>2016-09-03T07:50:17Z</time>
      </trkpt>
      <trkpt lat="43.94059" lon="1.40954">
        <ele>182.552505</ele>
        <time>2016-09-03T07:50:29Z</time>
      </trkpt>
      <trkpt lat="43.94087" lon="1.40892">
        <ele>182.975006</ele>
        <time>2016-09-03T07:50:43Z</time>
      </trkpt>
      <trkpt lat="43.94096" lon="1.40867">
        <ele>182.263199</ele>
        <time>2016-09-03T07:50:48Z</time>
      </trkpt>
      <trkpt lat="43.94084" lon="1.40822">
        <ele>179.366257</ele>
        <time>2016-09-03T07:50:56Z</time>
      </trkpt>
      <trkpt lat="43.94093" lon="1.40784">
        <ele>178.324295</ele>
        <time>2016-09-03T07:51:02Z</time>
      </trkpt>
      <trkpt lat="43.94098" lon="1.40771">
        <ele>177.092178</ele>
        <time>2016-09-03T07:51:04Z</time>
      </trkpt>
      <trkpt lat="43.9412" lon="1.4072">
        <ele>172.976669</ele>
        <time>2016-09-03T07:51:11Z</time>
      </trkpt>
      <trkpt lat="43.94134" lon="1.40694">
        <ele>171.418762</ele>
        <time>2016-09-03T07:51:15Z</time>
      </trkpt>
      <trkpt lat="43.94123" lon="1.40669">
        <ele>170.47229</ele>
        <time>2016-09-03T07:51:21Z</time>
      </trkpt>
      <trkpt lat="43.94106" lon="1.40667">
        <ele>170.310272</ele>
        <time>2016-09-03T07:51:24Z</time>
      </trkpt>
      <trkpt lat="43.94062" lon="1.40657">
        <ele>165.407944</ele>
        <time>2016-09-03T07:51:45Z</time>
      </trkpt>
      <trkpt lat="43.94061" lon="1.40643">
        <ele>163.613205</ele>
        <time>2016-09-03T07:51:53Z</time>
      </trkpt>
      <trkpt lat="43.94063" lon="1.40626">
        <ele>161.379623</ele>
        <time>2016-09-03T07:52:05Z</time>
      </trkpt>
      <trkpt lat="43.94046" lon="1.40608">
        <ele>157.055191</ele>
        <time>2016-09-03T07:52:10Z</time>
      </trkpt>
      <trkpt lat="43.93978" lon="1.40583">
        <ele>141.110153</ele>
        <time>2016-09-03T07:52:21Z</time>
      </trkpt>
      <trkpt lat="43.93967" lon="1.40576">
        <ele>138.280807</ele>
        <time>2016-09-03T07:52:26Z</time>
      </trkpt>
      <trkpt lat="43.93966" lon="1.40524">
        <ele>135.440231</ele>
        <time>2016-09-03T07:52:38Z</time>
      </trkpt>
      <trkpt lat="43.93977" lon="1.40471">
        <ele>136.460358</ele>
        <time>2016-09-03T07:52:50Z</time>
      </trkpt>
      <trkpt lat="43.93954" lon="1.40466">
        <ele>134.995773</ele>
        <time>2016-09-03T07:52:56Z</time>
      </trkpt>
      <trkpt lat="43.93922" lon="1.40523">
        <ele>130.282501</ele>
        <time>2016-09-03T07:53:02Z</time>
      </trkpt>
      <trkpt lat="43.93904" lon="1.40594">
        <ele>132.432938</ele>
        <time>2016-09-03T07:53:16Z</time>
      </trkpt>
      <trkpt lat="43.93892" lon="1.40612">
        <ele>135.212296</ele>
        <time>2016-09-03T07:53:26Z</time>
      </trkpt>
      <trkpt lat="43.93869" lon="1.40638">
        <ele>139.249969</ele>
        <time>2016-09-03T07:53:41Z</time>
      </trkpt>
      <trkpt lat="43.93848" lon="1.40659">
        <ele>142.830429</ele>
        <time>2016-09-03T07:53:55Z</time>
      </trkpt>
      <trkpt lat="43.93832" lon="1.4067">
        <ele>145.716248</ele>
        <time>2016-09-03T07:54:07Z</time>
      </trkpt>
      <trkpt lat="43.93789" lon="1.40693">
        <ele>152.328506</ele>
        <time>2016-09-03T07:54:30Z</time>
      </trkpt>
      <trkpt lat="43.93767" lon="1.40707">
        <ele>155.050888</ele>
        <time>2016-09-03T07:54:45Z</time>
      </trkpt>
      <trkpt lat="43.93747" lon="1.40716">
        <ele>156.66037</ele>
        <time>2016-09-03T07:55:35Z</time>
      </trkpt>
      <trkpt lat="43.93748" lon="1.40718">
        <ele>156.541702</ele>
        <time>2016-09-03T07:55:51Z</time>
      </trkpt>
      <trkpt lat="43.93745" lon="1.4072">
        <ele>156.574646</ele>
        <time>2016-09-03T07:56:14Z</time>
      </trkpt>
      <trkpt lat="43.93748" lon="1.4072">
        <ele>156.304092</ele>
        <time>2016-09-03T07:56:41Z</time>
      </trkpt>
      <trkpt lat="43.93749" lon="1.40717">
        <ele>156.503708</ele>
        <time>2016-09-03T07:57:03Z</time>
      </trkpt>
      <trkpt lat="43.93747" lon="1.40715">
        <ele>156.817368</ele>
        <time>2016-09-03T07:57:33Z</time>
      </trkpt>
      <trkpt lat="43.93747" lon="1.40718">
        <ele>156.581345</ele>
        <time>2016-09-03T07:58:08Z</time>
      </trkpt>
      <trkpt lat="43.93751" lon="1.40725">
        <ele>155.233978</ele>
        <time>2016-09-03T07:58:23Z</time>
      </trkpt>
      <trkpt lat="43.93739" lon="1.4074">
        <ele>154.132477</ele>
        <time>2016-09-03T07:58:32Z</time>
      </trkpt>
      <trkpt lat="43.93732" lon="1.40743">
        <ele>154.427567</ele>
        <time>2016-09-03T07:58:37Z</time>
      </trkpt>
      <trkpt lat="43.93705" lon="1.40777">
        <ele>152.631546</ele>
        <time>2016-09-03T07:58:53Z</time>
      </trkpt>
      <trkpt lat="43.93658" lon="1.4081">
        <ele>155.129944</ele>
        <time>2016-09-03T07:59:14Z</time>
      </trkpt>
      <trkpt lat="43.93644" lon="1.40849">
        <ele>153.541397</ele>
        <time>2016-09-03T07:59:25Z</time>
      </trkpt>
      <trkpt lat="43.93633" lon="1.40892">
        <ele>149.755005</ele>
        <time>2016-09-03T07:59:32Z</time>
      </trkpt>
      <trkpt lat="43.93621" lon="1.40913">
        <ele>148.735001</ele>
        <time>2016-09-03T07:59:36Z</time>
      </trkpt>
      <trkpt lat="43.936" lon="1.40966">
        <ele>144.730225</ele>
        <time>2016-09-03T07:59:45Z</time>
      </trkpt>
      <trkpt lat="43.93581" lon="1.40994">
        <ele>145.288101</ele>
        <time>2016-09-03T07:59:51Z</time>
      </trkpt>
      <trkpt lat="43.93569" lon="1.41041">
        <ele>145.097153</ele>
        <time>2016-09-03T08:00:01Z</time>
      </trkpt>
      <trkpt lat="43.93569" lon="1.41068">
        <ele>146.559525</ele>
        <time>2016-09-03T08:00:09Z</time>
      </trkpt>
      <trkpt lat="43.93546" lon="1.4118">
        <ele>152.864471</ele>
        <time>2016-09-03T08:00:47Z</time>
      </trkpt>
      <trkpt lat="43.93541" lon="1.41206">
        <ele>154.381317</ele>
        <time>2016-09-03T08:00:56Z</time>
      </trkpt>
      <trkpt lat="43.93523" lon="1.41289">
        <ele>159.476242</ele>
        <time>2016-09-03T08:01:19Z</time>
      </trkpt>
      <trkpt lat="43.93524" lon="1.41305">
        <ele>159.688751</ele>
        <time>2016-09-03T08:01:25Z</time>
      </trkpt>
      <trkpt lat="43.9352" lon="1.41334">
        <ele>160.693756</ele>
        <time>2016-09-03T08:01:35Z</time>
      </trkpt>
      <trkpt lat="43.93496" lon="1.41415">
        <ele>163.658752</ele>
        <time>2016-09-03T08:01:59Z</time>
      </trkpt>
      <trkpt lat="43.93483" lon="1.41454">
        <ele>165.213745</ele>
        <time>2016-09-03T08:02:11Z</time>
      </trkpt>
      <trkpt lat="43.93475" lon="1.4148">
        <ele>166.193954</ele>
        <time>2016-09-03T08:02:20Z</time>
      </trkpt>
      <trkpt lat="43.93451" lon="1.41499">
        <ele>169.445007</ele>
        <time>2016-09-03T08:02:34Z</time>
      </trkpt>
      <trkpt lat="43.93428" lon="1.41508">
        <ele>172.639999</ele>
        <time>2016-09-03T08:02:46Z</time>
      </trkpt>
      <trkpt lat="43.93399" lon="1.4151">
        <ele>175.797043</ele>
        <time>2016-09-03T08:03:00Z</time>
      </trkpt>
      <trkpt lat="43.93377" lon="1.41509">
        <ele>177.816254</ele>
        <time>2016-09-03T08:03:09Z</time>
      </trkpt>
      <trkpt lat="43.93368" lon="1.41518">
        <ele>178.453751</ele>
        <time>2016-09-03T08:03:14Z</time>
      </trkpt>
      <trkpt lat="43.93313" lon="1.41719">
        <ele>179.587494</ele>
        <time>2016-09-03T08:04:06Z</time>
      </trkpt>
      <trkpt lat="43.93295" lon="1.41799">
        <ele>178.781509</ele>
        <time>2016-09-03T08:04:23Z</time>
      </trkpt>
      <trkpt lat="43.93287" lon="1.41857">
        <ele>177.298386</ele>
        <time>2016-09-03T08:04:34Z</time>
      </trkpt>
      <trkpt lat="43.93289" lon="1.41861">
        <ele>177.874756</ele>
        <time>2016-09-03T08:04:35Z</time>
      </trkpt>
      <trkpt lat="43.93297" lon="1.41869">
        <ele>178.748947</ele>
        <time>2016-09-03T08:04:37Z</time>
      </trkpt>
      <trkpt lat="43.93315" lon="1.41882">
        <ele>179.334045</ele>
        <time>2016-09-03T08:04:41Z</time>
      </trkpt>
      <trkpt lat="43.93324" lon="1.41891">
        <ele>179.610275</ele>
        <time>2016-09-03T08:04:43Z</time>
      </trkpt>
      <trkpt lat="43.93335" lon="1.41905">
        <ele>179.941422</ele>
        <time>2016-09-03T08:04:46Z</time>
      </trkpt>
      <trkpt lat="43.9334" lon="1.41909">
        <ele>180.034805</ele>
        <time>2016-09-03T08:04:47Z</time>
      </trkpt>
      <trkpt lat="43.93353" lon="1.41912">
        <ele>180.377502</ele>
        <time>2016-09-03T08:04:50Z</time>
      </trkpt>
      <trkpt lat="43.93411" lon="1.41916">
        <ele>181.746246</ele>
        <time>2016-09-03T08:05:07Z</time>
      </trkpt>
      <trkpt lat="43.93452" lon="1.41922">
        <ele>182.381836</ele>
        <time>2016-09-03T08:05:19Z</time>
      </trkpt>
      <trkpt lat="43.93512" lon="1.41939">
        <ele>183.072495</ele>
        <time>2016-09-03T08:05:35Z</time>
      </trkpt>
      <trkpt lat="43.93543" lon="1.4195">
        <ele>184.115204</ele>
        <time>2016-09-03T08:05:48Z</time>
      </trkpt>
      <trkpt lat="43.93543" lon="1.41949">
        <ele>184.115005</ele>
        <time>2016-09-03T08:06:01Z</time>
      </trkpt>
      <trkpt lat="43.93544" lon="1.4195">
        <ele>184.154602</ele>
        <time>2016-09-03T08:06:25Z</time>
      </trkpt>
      <trkpt lat="43.93543" lon="1.41948">
        <ele>184.073944</ele>
        <time>2016-09-03T08:07:24Z</time>
      </trkpt>
      <trkpt lat="43.93542" lon="1.41949">
        <ele>184.068604</ele>
        <time>2016-09-03T08:07:46Z</time>
      </trkpt>
      <trkpt lat="43.93544" lon="1.42039">
        <ele>184.976501</ele>
        <time>2016-09-03T08:08:08Z</time>
      </trkpt>
      <trkpt lat="43.93549" lon="1.42096">
        <ele>184.645447</ele>
        <time>2016-09-03T08:08:17Z</time>
      </trkpt>
      <trkpt lat="43.93545" lon="1.42222">
        <ele>185.651382</ele>
        <time>2016-09-03T08:08:45Z</time>
      </trkpt>
      <trkpt lat="43.9355" lon="1.42281">
        <ele>185.063782</ele>
        <time>2016-09-03T08:08:58Z</time>
      </trkpt>
      <trkpt lat="43.93556" lon="1.42334">
        <ele>183.350204</ele>
        <time>2016-09-03T08:09:10Z</time>
      </trkpt>
      <trkpt lat="43.93556" lon="1.42361">
        <ele>182.711243</ele>
        <time>2016-09-03T08:09:15Z</time>
      </trkpt>
      <trkpt lat="43.93555" lon="1.42376">
        <ele>182.336258</ele>
        <time>2016-09-03T08:09:17Z</time>
      </trkpt>
      <trkpt lat="43.93559" lon="1.42478">
        <ele>180.345505</ele>
        <time>2016-09-03T08:09:28Z</time>
      </trkpt>
      <trkpt lat="43.93557" lon="1.42571">
        <ele>179.357376</ele>
        <time>2016-09-03T08:09:39Z</time>
      </trkpt>
      <trkpt lat="43.93558" lon="1.4258">
        <ele>179.333878</ele>
        <time>2016-09-03T08:09:41Z</time>
      </trkpt>
      <trkpt lat="43.9356" lon="1.42587">
        <ele>179.443207</ele>
        <time>2016-09-03T08:09:47Z</time>
      </trkpt>
      <trkpt lat="43.93556" lon="1.42592">
        <ele>179.087997</ele>
        <time>2016-09-03T08:09:50Z</time>
      </trkpt>
      <trkpt lat="43.93557" lon="1.42606">
        <ele>178.606781</ele>
        <time>2016-09-03T08:09:53Z</time>
      </trkpt>
      <trkpt lat="43.93559" lon="1.42625">
        <ele>178.004471</ele>
        <time>2016-09-03T08:09:56Z</time>
      </trkpt>
      <trkpt lat="43.93565" lon="1.42658">
        <ele>176.800003</ele>
        <time>2016-09-03T08:10:01Z</time>
      </trkpt>
      <trkpt lat="43.93564" lon="1.42664">
        <ele>176.604996</ele>
        <time>2016-09-03T08:10:02Z</time>
      </trkpt>
      <trkpt lat="43.9356" lon="1.42674">
        <ele>176.279999</ele>
        <time>2016-09-03T08:10:04Z</time>
      </trkpt>
      <trkpt lat="43.9355" lon="1.42686">
        <ele>175.917496</ele>
        <time>2016-09-03T08:10:07Z</time>
      </trkpt>
      <trkpt lat="43.93544" lon="1.42696">
        <ele>175.597504</ele>
        <time>2016-09-03T08:10:09Z</time>
      </trkpt>
      <trkpt lat="43.93541" lon="1.42706">
        <ele>175.262497</ele>
        <time>2016-09-03T08:10:11Z</time>
      </trkpt>
      <trkpt lat="43.93537" lon="1.42732">
        <ele>174.058441</ele>
        <time>2016-09-03T08:10:16Z</time>
      </trkpt>
      <trkpt lat="43.9354" lon="1.42749">
        <ele>173.139404</ele>
        <time>2016-09-03T08:10:19Z</time>
      </trkpt>
      <trkpt lat="43.93539" lon="1.42788">
        <ele>170.681259</ele>
        <time>2016-09-03T08:10:26Z</time>
      </trkpt>
      <trkpt lat="43.93492" lon="1.42854">
        <ele>160.524246</ele>
        <time>2016-09-03T08:10:42Z</time>
      </trkpt>
      <trkpt lat="43.93493" lon="1.42885">
        <ele>156.599991</ele>
        <time>2016-09-03T08:10:50Z</time>
      </trkpt>
      <trkpt lat="43.93486" lon="1.42927">
        <ele>150.0728</ele>
        <time>2016-09-03T08:11:02Z</time>
      </trkpt>
      <trkpt lat="43.93487" lon="1.42944">
        <ele>147.334274</ele>
        <time>2016-09-03T08:11:08Z</time>
      </trkpt>
      <trkpt lat="43.93466" lon="1.42971">
        <ele>140.127625</ele>
        <time>2016-09-03T08:11:18Z</time>
      </trkpt>
      <trkpt lat="43.93455" lon="1.42979">
        <ele>137.430054</ele>
        <time>2016-09-03T08:11:24Z</time>
      </trkpt>
      <trkpt lat="43.9344" lon="1.42983">
        <ele>135.349091</ele>
        <time>2016-09-03T08:11:31Z</time>
      </trkpt>
      <trkpt lat="43.93436" lon="1.43001">
        <ele>132.960648</ele>
        <time>2016-09-03T08:11:38Z</time>
      </trkpt>
      <trkpt lat="43.93436" lon="1.43009">
        <ele>132.063644</ele>
        <time>2016-09-03T08:11:49Z</time>
      </trkpt>
      <trkpt lat="43.93433" lon="1.43004">
        <ele>132.712479</ele>
        <time>2016-09-03T08:12:03Z</time>
      </trkpt>
      <trkpt lat="43.93433" lon="1.42999">
        <ele>133.262421</ele>
        <time>2016-09-03T08:12:07Z</time>
      </trkpt>
      <trkpt lat="43.93439" lon="1.42995">
        <ele>133.677109</ele>
        <time>2016-09-03T08:12:22Z</time>
      </trkpt>
      <trkpt lat="43.93446" lon="1.42993">
        <ele>134.478363</ele>
        <time>2016-09-03T08:12:36Z</time>
      </trkpt>
      <trkpt lat="43.9346" lon="1.42987">
        <ele>136.746246</ele>
        <time>2016-09-03T08:13:14Z</time>
      </trkpt>
      <trkpt lat="43.93456" lon="1.42987">
        <ele>136.290924</ele>
        <time>2016-09-03T08:13:25Z</time>
      </trkpt>
      <trkpt lat="43.9347" lon="1.42977">
        <ele>139.672867</ele>
        <time>2016-09-03T08:14:06Z</time>
      </trkpt>
      <trkpt lat="43.93479" lon="1.42967">
        <ele>143.002853</ele>
        <time>2016-09-03T08:14:30Z</time>
      </trkpt>
      <trkpt lat="43.93482" lon="1.42966">
        <ele>143.441315</ele>
        <time>2016-09-03T08:14:51Z</time>
      </trkpt>
      <trkpt lat="43.93483" lon="1.42964">
        <ele>143.947495</ele>
        <time>2016-09-03T08:15:16Z</time>
      </trkpt>
      <trkpt lat="43.93487" lon="1.42963">
        <ele>144.230179</ele>
        <time>2016-09-03T08:15:41Z</time>
      </trkpt>
      <trkpt lat="43.93482" lon="1.42957">
        <ele>145.163086</ele>
        <time>2016-09-03T08:16:11Z</time>
      </trkpt>
      <trkpt lat="43.93483" lon="1.42961">
        <ele>144.564743</ele>
        <time>2016-09-03T08:17:08Z</time>
      </trkpt>
      <trkpt lat="43.93484" lon="1.42961">
        <ele>144.416626</ele>
        <time>2016-09-03T08:17:28Z</time>
      </trkpt>
      <trkpt lat="43.93491" lon="1.42975">
        <ele>141.479996</ele>
        <time>2016-09-03T08:17:38Z</time>
      </trkpt>
      <trkpt lat="43.93494" lon="1.42977">
        <ele>141.147507</ele>
        <time>2016-09-03T08:17:56Z</time>
      </trkpt>
      <trkpt lat="43.93499" lon="1.42976">
        <ele>141.164993</ele>
        <time>2016-09-03T08:18:12Z</time>
      </trkpt>
      <trkpt lat="43.935" lon="1.42978">
        <ele>140.727493</ele>
        <time>2016-09-03T08:18:18Z</time>
      </trkpt>
      <trkpt lat="43.93501" lon="1.42997">
        <ele>136.404999</ele>
        <time>2016-09-03T08:18:24Z</time>
      </trkpt>
      <trkpt lat="43.93498" lon="1.4301">
        <ele>133.5</ele>
        <time>2016-09-03T08:18:38Z</time>
      </trkpt>
      <trkpt lat="43.93499" lon="1.4303">
        <ele>130.181564</ele>
        <time>2016-09-03T08:18:51Z</time>
      </trkpt>
      <trkpt lat="43.93496" lon="1.43032">
        <ele>130.289917</ele>
        <time>2016-09-03T08:18:53Z</time>
      </trkpt>
      <trkpt lat="43.9348" lon="1.43033">
        <ele>130.458908</ele>
        <time>2016-09-03T08:19:01Z</time>
      </trkpt>
      <trkpt lat="43.9344" lon="1.43003">
        <ele>132.785187</ele>
        <time>2016-09-03T08:19:20Z</time>
      </trkpt>
      <trkpt lat="43.93436" lon="1.42997">
        <ele>133.394623</ele>
        <time>2016-09-03T08:19:25Z</time>
      </trkpt>
      <trkpt lat="43.93431" lon="1.42997">
        <ele>133.522934</ele>
        <time>2016-09-03T08:19:29Z</time>
      </trkpt>
      <trkpt lat="43.93423" lon="1.42987">
        <ele>134.38414</ele>
        <time>2016-09-03T08:19:40Z</time>
      </trkpt>
      <trkpt lat="43.93422" lon="1.42986">
        <ele>134.406097</ele>
        <time>2016-09-03T08:19:41Z</time>
      </trkpt>
      <trkpt lat="43.93416" lon="1.42967">
        <ele>135.471725</ele>
        <time>2016-09-03T08:19:49Z</time>
      </trkpt>
      <trkpt lat="43.93373" lon="1.42892">
        <ele>136.276276</ele>
        <time>2016-09-03T08:20:35Z</time>
      </trkpt>
      <trkpt lat="43.93358" lon="1.42851">
        <ele>137.287643</ele>
        <time>2016-09-03T08:20:50Z</time>
      </trkpt>
      <trkpt lat="43.93338" lon="1.42811">
        <ele>138.643402</ele>
        <time>2016-09-03T08:21:06Z</time>
      </trkpt>
      <trkpt lat="43.93322" lon="1.42783">
        <ele>140.009079</ele>
        <time>2016-09-03T08:21:19Z</time>
      </trkpt>
      <trkpt lat="43.93311" lon="1.42773">
        <ele>139.990997</ele>
        <time>2016-09-03T08:21:32Z</time>
      </trkpt>
      <trkpt lat="43.93303" lon="1.4276">
        <ele>139.478592</ele>
        <time>2016-09-03T08:21:44Z</time>
      </trkpt>
      <trkpt lat="43.93291" lon="1.42721">
        <ele>140.585007</ele>
        <time>2016-09-03T08:21:58Z</time>
      </trkpt>
      <trkpt lat="43.93284" lon="1.42687">
        <ele>141.343719</ele>
        <time>2016-09-03T08:22:11Z</time>
      </trkpt>
      <trkpt lat="43.93271" lon="1.42652">
        <ele>141.747482</ele>
        <time>2016-09-03T08:22:21Z</time>
      </trkpt>
      <trkpt lat="43.93257" lon="1.42611">
        <ele>141.802246</ele>
        <time>2016-09-03T08:22:34Z</time>
      </trkpt>
      <trkpt lat="43.93241" lon="1.42581">
        <ele>145.627426</ele>
        <time>2016-09-03T08:22:46Z</time>
      </trkpt>
      <trkpt lat="43.93221" lon="1.42548">
        <ele>147.929993</ele>
        <time>2016-09-03T08:22:59Z</time>
      </trkpt>
      <trkpt lat="43.93199" lon="1.42519">
        <ele>148.763809</ele>
        <time>2016-09-03T08:23:12Z</time>
      </trkpt>
      <trkpt lat="43.93184" lon="1.42492">
        <ele>150.407471</ele>
        <time>2016-09-03T08:23:25Z</time>
      </trkpt>
      <trkpt lat="43.93171" lon="1.42477">
        <ele>149.815933</ele>
        <time>2016-09-03T08:23:38Z</time>
      </trkpt>
      <trkpt lat="43.93164" lon="1.4247">
        <ele>149.093216</ele>
        <time>2016-09-03T08:23:57Z</time>
      </trkpt>
      <trkpt lat="43.93159" lon="1.42475">
        <ele>149.844757</ele>
        <time>2016-09-03T08:24:08Z</time>
      </trkpt>
      <trkpt lat="43.93154" lon="1.42487">
        <ele>151.617004</ele>
        <time>2016-09-03T08:24:20Z</time>
      </trkpt>
      <trkpt lat="43.93152" lon="1.4249">
        <ele>152.202881</ele>
        <time>2016-09-03T08:24:23Z</time>
      </trkpt>
      <trkpt lat="43.9315" lon="1.42491">
        <ele>152.505905</ele>
        <time>2016-09-03T08:24:25Z</time>
      </trkpt>
      <trkpt lat="43.93145" lon="1.42498">
        <ele>153.699921</ele>
        <time>2016-09-03T08:24:30Z</time>
      </trkpt>
      <trkpt lat="43.93136" lon="1.42517">
        <ele>156.279892</ele>
        <time>2016-09-03T08:24:43Z</time>
      </trkpt>
      <trkpt lat="43.93118" lon="1.42539">
        <ele>159.504257</ele>
        <time>2016-09-03T08:25:00Z</time>
      </trkpt>
      <trkpt lat="43.93072" lon="1.42559">
        <ele>161.542694</ele>
        <time>2016-09-03T08:25:57Z</time>
      </trkpt>
      <trkpt lat="43.93073" lon="1.4256">
        <ele>161.589111</ele>
        <time>2016-09-03T08:26:18Z</time>
      </trkpt>
      <trkpt lat="43.93072" lon="1.42562">
        <ele>161.710312</ele>
        <time>2016-09-03T08:26:46Z</time>
      </trkpt>
      <trkpt lat="43.93072" lon="1.42557">
        <ele>161.42746</ele>
        <time>2016-09-03T08:27:10Z</time>
      </trkpt>
      <trkpt lat="43.93073" lon="1.42561">
        <ele>161.669876</ele>
        <time>2016-09-03T08:27:29Z</time>
      </trkpt>
      <trkpt lat="43.93092" lon="1.42586">
        <ele>163.545212</ele>
        <time>2016-09-03T08:27:44Z</time>
      </trkpt>
      <trkpt lat="43.93117" lon="1.42627">
        <ele>166.434311</ele>
        <time>2016-09-03T08:27:59Z</time>
      </trkpt>
      <trkpt lat="43.93153" lon="1.42697">
        <ele>168.082321</ele>
        <time>2016-09-03T08:28:23Z</time>
      </trkpt>
      <trkpt lat="43.93154" lon="1.42732">
        <ele>168.479568</ele>
        <time>2016-09-03T08:28:34Z</time>
      </trkpt>
      <trkpt lat="43.93133" lon="1.42771">
        <ele>170.417267</ele>
        <time>2016-09-03T08:28:49Z</time>
      </trkpt>
      <trkpt lat="43.93106" lon="1.42812">
        <ele>172.030563</ele>
        <time>2016-09-03T08:29:03Z</time>
      </trkpt>
      <trkpt lat="43.93086" lon="1.42848">
        <ele>174.395416</ele>
        <time>2016-09-03T08:29:15Z</time>
      </trkpt>
      <trkpt lat="43.93085" lon="1.42891">
        <ele>172.787659</ele>
        <time>2016-09-03T08:29:26Z</time>
      </trkpt>
      <trkpt lat="43.9309" lon="1.4295">
        <ele>168.663788</ele>
        <time>2016-09-03T08:29:34Z</time>
      </trkpt>
      <trkpt lat="43.93084" lon="1.43001">
        <ele>164.3862</ele>
        <time>2016-09-03T08:29:42Z</time>
      </trkpt>
      <trkpt lat="43.93109" lon="1.43084">
        <ele>155.792496</ele>
        <time>2016-09-03T08:30:07Z</time>
      </trkpt>
      <trkpt lat="43.93145" lon="1.43088">
        <ele>153.990005</ele>
        <time>2016-09-03T08:30:19Z</time>
      </trkpt>
      <trkpt lat="43.93164" lon="1.43086">
        <ele>152.738251</ele>
        <time>2016-09-03T08:30:23Z</time>
      </trkpt>
      <trkpt lat="43.93195" lon="1.43075">
        <ele>150.924454</ele>
        <time>2016-09-03T08:30:29Z</time>
      </trkpt>
      <trkpt lat="43.93219" lon="1.43061">
        <ele>151.102982</ele>
        <time>2016-09-03T08:30:33Z</time>
      </trkpt>
      <trkpt lat="43.93265" lon="1.43031">
        <ele>153.790024</ele>
        <time>2016-09-03T08:30:42Z</time>
      </trkpt>
      <trkpt lat="43.93289" lon="1.42995">
        <ele>154.100006</ele>
        <time>2016-09-03T08:30:50Z</time>
      </trkpt>
      <trkpt lat="43.93292" lon="1.42989">
        <ele>154.272507</ele>
        <time>2016-09-03T08:30:52Z</time>
      </trkpt>
      <trkpt lat="43.93307" lon="1.43004">
        <ele>150.647552</ele>
        <time>2016-09-03T08:30:57Z</time>
      </trkpt>
      <trkpt lat="43.93328" lon="1.42997">
        <ele>147.124222</ele>
        <time>2016-09-03T08:31:05Z</time>
      </trkpt>
      <trkpt lat="43.93351" lon="1.4292">
        <ele>138.996826</ele>
        <time>2016-09-03T08:31:20Z</time>
      </trkpt>
      <trkpt lat="43.93374" lon="1.42909">
        <ele>135.76767</ele>
        <time>2016-09-03T08:31:43Z</time>
      </trkpt>
      <trkpt lat="43.93405" lon="1.42961">
        <ele>135.008408</ele>
        <time>2016-09-03T08:32:00Z</time>
      </trkpt>
      <trkpt lat="43.93415" lon="1.42973">
        <ele>135.084579</ele>
        <time>2016-09-03T08:32:06Z</time>
      </trkpt>
      <trkpt lat="43.93425" lon="1.42997">
        <ele>133.558105</ele>
        <time>2016-09-03T08:32:12Z</time>
      </trkpt>
      <trkpt lat="43.93451" lon="1.4302">
        <ele>130.936859</ele>
        <time>2016-09-03T08:32:24Z</time>
      </trkpt>
      <trkpt lat="43.93474" lon="1.43034">
        <ele>130.525604</ele>
        <time>2016-09-03T08:32:37Z</time>
      </trkpt>
      <trkpt lat="43.93498" lon="1.43046">
        <ele>130.951202</ele>
        <time>2016-09-03T08:32:48Z</time>
      </trkpt>
      <trkpt lat="43.93534" lon="1.43058">
        <ele>130.380203</ele>
        <time>2016-09-03T08:33:01Z</time>
      </trkpt>
      <trkpt lat="43.93538" lon="1.43056">
        <ele>130.264404</ele>
        <time>2016-09-03T08:33:09Z</time>
      </trkpt>
      <trkpt lat="43.93514" lon="1.43055">
        <ele>130.882217</ele>
        <time>2016-09-03T08:33:21Z</time>
      </trkpt>
      <trkpt lat="43.9349" lon="1.43046">
        <ele>131.103714</ele>
        <time>2016-09-03T08:33:33Z</time>
      </trkpt>
      <trkpt lat="43.9346" lon="1.43041">
        <ele>131.118744</ele>
        <time>2016-09-03T08:33:46Z</time>
      </trkpt>
      <trkpt lat="43.93448" lon="1.43043">
        <ele>131.437363</ele>
        <time>2016-09-03T08:34:23Z</time>
      </trkpt>
      <trkpt lat="43.93439" lon="1.43048">
        <ele>132.004745</ele>
        <time>2016-09-03T08:34:57Z</time>
      </trkpt>
      <trkpt lat="43.93448" lon="1.43036">
        <ele>130.857925</ele>
        <time>2016-09-03T08:36:18Z</time>
      </trkpt>
      <trkpt lat="43.93444" lon="1.43033">
        <ele>130.584259</ele>
        <time>2016-09-03T08:36:54Z</time>
      </trkpt>
      <trkpt lat="43.93445" lon="1.43038">
        <ele>131.044617</ele>
        <time>2016-09-03T08:37:22Z</time>
      </trkpt>
      <trkpt lat="43.93443" lon="1.43039">
        <ele>131.141556</ele>
        <time>2016-09-03T08:37:44Z</time>
      </trkpt>
      <trkpt lat="43.93444" lon="1.43036">
        <ele>130.827942</ele>
        <time>2016-09-03T08:38:19Z</time>
      </trkpt>
      <trkpt lat="43.93429" lon="1.43056">
        <ele>133.176956</ele>
        <time>2016-09-03T08:38:53Z</time>
      </trkpt>
      <trkpt lat="43.93432" lon="1.43042">
        <ele>131.818604</ele>
        <time>2016-09-03T08:39:28Z</time>
      </trkpt>
      <trkpt lat="43.93426" lon="1.43039">
        <ele>132.005356</ele>
        <time>2016-09-03T08:40:05Z</time>
      </trkpt>
      <trkpt lat="43.93432" lon="1.43041">
        <ele>131.694397</ele>
        <time>2016-09-03T08:40:40Z</time>
      </trkpt>
      <trkpt lat="43.93429" lon="1.4303">
        <ele>130.983994</ele>
        <time>2016-09-03T08:42:15Z</time>
      </trkpt>
      <trkpt lat="43.93435" lon="1.43024">
        <ele>130.511429</ele>
        <time>2016-09-03T08:43:26Z</time>
      </trkpt>
      <trkpt lat="43.93435" lon="1.4302">
        <ele>130.939575</ele>
        <time>2016-09-03T08:43:59Z</time>
      </trkpt>
      <trkpt lat="43.93441" lon="1.43036">
        <ele>130.865082</ele>
        <time>2016-09-03T08:44:27Z</time>
      </trkpt>
      <trkpt lat="43.93436" lon="1.43041">
        <ele>131.40625</ele>
        <time>2016-09-03T08:44:31Z</time>
      </trkpt>
      <trkpt lat="43.93404" lon="1.43062">
        <ele>134.693192</ele>
        <time>2016-09-03T08:44:44Z</time>
      </trkpt>
      <trkpt lat="43.93376" lon="1.43088">
        <ele>135.305878</ele>
        <time>2016-09-03T08:44:56Z</time>
      </trkpt>
      <trkpt lat="43.93355" lon="1.43114">
        <ele>136.646423</ele>
        <time>2016-09-03T08:45:08Z</time>
      </trkpt>
      <trkpt lat="43.9334" lon="1.43128">
        <ele>137.562225</ele>
        <time>2016-09-03T08:45:18Z</time>
      </trkpt>
      <trkpt lat="43.93326" lon="1.43137">
        <ele>138.071762</ele>
        <time>2016-09-03T08:45:24Z</time>
      </trkpt>
      <trkpt lat="43.93271" lon="1.43163">
        <ele>138.750977</ele>
        <time>2016-09-03T08:45:41Z</time>
      </trkpt>
      <trkpt lat="43.93249" lon="1.4317">
        <ele>138.832504</ele>
        <time>2016-09-03T08:45:50Z</time>
      </trkpt>
      <trkpt lat="43.93221" lon="1.43183">
        <ele>138.565002</ele>
        <time>2016-09-03T08:46:01Z</time>
      </trkpt>
      <trkpt lat="43.93146" lon="1.43237">
        <ele>141.033691</ele>
        <time>2016-09-03T08:46:27Z</time>
      </trkpt>
      <trkpt lat="43.93123" lon="1.43252">
        <ele>143.223541</ele>
        <time>2016-09-03T08:46:39Z</time>
      </trkpt>
      <trkpt lat="43.93114" lon="1.43255">
        <ele>143.731262</ele>
        <time>2016-09-03T08:46:50Z</time>
      </trkpt>
      <trkpt lat="43.93107" lon="1.43265">
        <ele>144.972992</ele>
        <time>2016-09-03T08:47:24Z</time>
      </trkpt>
      <trkpt lat="43.93098" lon="1.43265">
        <ele>145.16951</ele>
        <time>2016-09-03T08:49:02Z</time>
      </trkpt>
      <trkpt lat="43.93101" lon="1.43258">
        <ele>144.292328</ele>
        <time>2016-09-03T08:49:40Z</time>
      </trkpt>
      <trkpt lat="43.93099" lon="1.43261">
        <ele>144.638748</ele>
        <time>2016-09-03T08:50:07Z</time>
      </trkpt>
      <trkpt lat="43.93101" lon="1.43257">
        <ele>144.098679</ele>
        <time>2016-09-03T08:50:37Z</time>
      </trkpt>
      <trkpt lat="43.93095" lon="1.43259">
        <ele>144.509399</ele>
        <time>2016-09-03T08:51:08Z</time>
      </trkpt>
      <trkpt lat="43.931" lon="1.43265">
        <ele>145.148926</ele>
        <time>2016-09-03T08:51:49Z</time>
      </trkpt>
      <trkpt lat="43.93103" lon="1.43256">
        <ele>143.917297</ele>
        <time>2016-09-03T08:52:28Z</time>
      </trkpt>
      <trkpt lat="43.93106" lon="1.43257">
        <ele>144.033035</ele>
        <time>2016-09-03T08:53:07Z</time>
      </trkpt>
      <trkpt lat="43.93102" lon="1.43265">
        <ele>145.059158</ele>
        <time>2016-09-03T08:54:23Z</time>
      </trkpt>
      <trkpt lat="43.93103" lon="1.43264">
        <ele>144.885498</ele>
        <time>2016-09-03T08:54:52Z</time>
      </trkpt>
      <trkpt lat="43.931" lon="1.43261">
        <ele>144.618164</ele>
        <time>2016-09-03T08:55:28Z</time>
      </trkpt>
      <trkpt lat="43.93102" lon="1.43264">
        <ele>144.887009</ele>
        <time>2016-09-03T08:56:07Z</time>
      </trkpt>
      <trkpt lat="43.93103" lon="1.43258">
        <ele>144.255966</ele>
        <time>2016-09-03T08:56:41Z</time>
      </trkpt>
      <trkpt lat="43.93106" lon="1.43257">
        <ele>143.987518</ele>
        <time>2016-09-03T08:57:14Z</time>
      </trkpt>
      <trkpt lat="43.93104" lon="1.43257">
        <ele>144.013046</ele>
        <time>2016-09-03T08:57:51Z</time>
      </trkpt>
      <trkpt lat="43.93098" lon="1.43261">
        <ele>144.6716</ele>
        <time>2016-09-03T08:58:22Z</time>
      </trkpt>
      <trkpt lat="43.93098" lon="1.43254">
        <ele>143.851334</ele>
        <time>2016-09-03T08:58:56Z</time>
      </trkpt>
      <trkpt lat="43.93096" lon="1.43261">
        <ele>144.673767</ele>
        <time>2016-09-03T08:59:14Z</time>
      </trkpt>
      <trkpt lat="43.93099" lon="1.43264">
        <ele>145.060516</ele>
        <time>2016-09-03T08:59:27Z</time>
      </trkpt>
      <trkpt lat="43.93103" lon="1.4326">
        <ele>144.451996</ele>
        <time>2016-09-03T08:59:49Z</time>
      </trkpt>
      <trkpt lat="43.93106" lon="1.43244">
        <ele>142.474426</ele>
        <time>2016-09-03T09:00:01Z</time>
      </trkpt>
      <trkpt lat="43.93105" lon="1.43231">
        <ele>141.016876</ele>
        <time>2016-09-03T09:00:07Z</time>
      </trkpt>
      <trkpt lat="43.93099" lon="1.43208">
        <ele>140.183609</ele>
        <time>2016-09-03T09:00:12Z</time>
      </trkpt>
      <trkpt lat="43.93093" lon="1.43177">
        <ele>142.489059</ele>
        <time>2016-09-03T09:00:25Z</time>
      </trkpt>
      <trkpt lat="43.93083" lon="1.43147">
        <ele>146.174683</ele>
        <time>2016-09-03T09:00:46Z</time>
      </trkpt>
      <trkpt lat="43.93075" lon="1.43132">
        <ele>149.461243</ele>
        <time>2016-09-03T09:00:58Z</time>
      </trkpt>
      <trkpt lat="43.93074" lon="1.43119">
        <ele>151.247498</ele>
        <time>2016-09-03T09:01:06Z</time>
      </trkpt>
      <trkpt lat="43.9308" lon="1.43103">
        <ele>152.785126</ele>
        <time>2016-09-03T09:01:18Z</time>
      </trkpt>
      <trkpt lat="43.93089" lon="1.43095">
        <ele>154.251251</ele>
        <time>2016-09-03T09:01:41Z</time>
      </trkpt>
      <trkpt lat="43.93101" lon="1.43093">
        <ele>154.688751</ele>
        <time>2016-09-03T09:01:53Z</time>
      </trkpt>
      <trkpt lat="43.93103" lon="1.4309">
        <ele>155.016251</ele>
        <time>2016-09-03T09:02:08Z</time>
      </trkpt>
      <trkpt lat="43.93112" lon="1.43088">
        <ele>155.419998</ele>
        <time>2016-09-03T09:02:19Z</time>
      </trkpt>
      <trkpt lat="43.93126" lon="1.43091">
        <ele>155.204575</ele>
        <time>2016-09-03T09:02:24Z</time>
      </trkpt>
      <trkpt lat="43.93144" lon="1.43091">
        <ele>153.603561</ele>
        <time>2016-09-03T09:02:28Z</time>
      </trkpt>
      <trkpt lat="43.93168" lon="1.43084">
        <ele>152.642899</ele>
        <time>2016-09-03T09:02:33Z</time>
      </trkpt>
      <trkpt lat="43.932" lon="1.43072">
        <ele>150.949493</ele>
        <time>2016-09-03T09:02:39Z</time>
      </trkpt>
      <trkpt lat="43.93274" lon="1.43025">
        <ele>153.192505</ele>
        <time>2016-09-03T09:02:57Z</time>
      </trkpt>
      <trkpt lat="43.93294" lon="1.42986">
        <ele>154.227493</ele>
        <time>2016-09-03T09:03:19Z</time>
      </trkpt>
      <trkpt lat="43.93296" lon="1.42986">
        <ele>154.009995</ele>
        <time>2016-09-03T09:03:24Z</time>
      </trkpt>
      <trkpt lat="43.93313" lon="1.43007">
        <ele>149.356247</ele>
        <time>2016-09-03T09:03:30Z</time>
      </trkpt>
      <trkpt lat="43.93349" lon="1.43034">
        <ele>141.926239</ele>
        <time>2016-09-03T09:03:40Z</time>
      </trkpt>
      <trkpt lat="43.9338" lon="1.43041">
        <ele>136.299942</ele>
        <time>2016-09-03T09:03:49Z</time>
      </trkpt>
      <trkpt lat="43.93391" lon="1.43035">
        <ele>134.554901</ele>
        <time>2016-09-03T09:03:58Z</time>
      </trkpt>
      <trkpt lat="43.93409" lon="1.4303">
        <ele>132.691376</ele>
        <time>2016-09-03T09:04:10Z</time>
      </trkpt>
      <trkpt lat="43.93412" lon="1.43036">
        <ele>132.773544</ele>
        <time>2016-09-03T09:04:17Z</time>
      </trkpt>
      <trkpt lat="43.93421" lon="1.43044">
        <ele>132.698761</ele>
        <time>2016-09-03T09:04:23Z</time>
      </trkpt>
      <trkpt lat="43.93468" lon="1.4304">
        <ele>131.020462</ele>
        <time>2016-09-03T09:04:39Z</time>
      </trkpt>
      <trkpt lat="43.93504" lon="1.43048">
        <ele>130.890182</ele>
        <time>2016-09-03T09:04:51Z</time>
      </trkpt>
      <trkpt lat="43.93544" lon="1.43051">
        <ele>130.171249</ele>
        <time>2016-09-03T09:05:03Z</time>
      </trkpt>
      <trkpt lat="43.93576" lon="1.4307">
        <ele>128.817505</ele>
        <time>2016-09-03T09:05:14Z</time>
      </trkpt>
      <trkpt lat="43.93622" lon="1.43107">
        <ele>129.22821</ele>
        <time>2016-09-03T09:05:28Z</time>
      </trkpt>
      <trkpt lat="43.93641" lon="1.43119">
        <ele>129.046921</ele>
        <time>2016-09-03T09:05:33Z</time>
      </trkpt>
      <trkpt lat="43.93648" lon="1.43118">
        <ele>128.712402</ele>
        <time>2016-09-03T09:05:35Z</time>
      </trkpt>
      <trkpt lat="43.93658" lon="1.43099">
        <ele>128.088669</ele>
        <time>2016-09-03T09:05:41Z</time>
      </trkpt>
      <trkpt lat="43.93675" lon="1.43105">
        <ele>128.810471</ele>
        <time>2016-09-03T09:05:48Z</time>
      </trkpt>
      <trkpt lat="43.93684" lon="1.43127">
        <ele>128.452728</ele>
        <time>2016-09-03T09:05:56Z</time>
      </trkpt>
      <trkpt lat="43.93702" lon="1.43151">
        <ele>127.324654</ele>
        <time>2016-09-03T09:06:04Z</time>
      </trkpt>
      <trkpt lat="43.93737" lon="1.43162">
        <ele>127.346405</ele>
        <time>2016-09-03T09:06:14Z</time>
      </trkpt>
      <trkpt lat="43.93778" lon="1.43167">
        <ele>127.726189</ele>
        <time>2016-09-03T09:06:25Z</time>
      </trkpt>
      <trkpt lat="43.93837" lon="1.43203">
        <ele>124.699333</ele>
        <time>2016-09-03T09:06:43Z</time>
      </trkpt>
      <trkpt lat="43.93842" lon="1.43195">
        <ele>125.512032</ele>
        <time>2016-09-03T09:06:49Z</time>
      </trkpt>
      <trkpt lat="43.93855" lon="1.43188">
        <ele>126.979561</ele>
        <time>2016-09-03T09:07:03Z</time>
      </trkpt>
      <trkpt lat="43.93856" lon="1.43185">
        <ele>127.512589</ele>
        <time>2016-09-03T09:07:05Z</time>
      </trkpt>
      <trkpt lat="43.93862" lon="1.43156">
        <ele>131.684738</ele>
        <time>2016-09-03T09:07:18Z</time>
      </trkpt>
      <trkpt lat="43.93862" lon="1.43142">
        <ele>133.559341</ele>
        <time>2016-09-03T09:07:24Z</time>
      </trkpt>
      <trkpt lat="43.93859" lon="1.4312">
        <ele>136.382202</ele>
        <time>2016-09-03T09:07:37Z</time>
      </trkpt>
      <trkpt lat="43.93861" lon="1.43116">
        <ele>137.047913</ele>
        <time>2016-09-03T09:07:40Z</time>
      </trkpt>
      <trkpt lat="43.93872" lon="1.43114">
        <ele>138.244629</ele>
        <time>2016-09-03T09:07:48Z</time>
      </trkpt>
      <trkpt lat="43.93901" lon="1.43119">
        <ele>139.278748</ele>
        <time>2016-09-03T09:07:59Z</time>
      </trkpt>
      <trkpt lat="43.93945" lon="1.43141">
        <ele>137.800842</ele>
        <time>2016-09-03T09:08:17Z</time>
      </trkpt>
      <trkpt lat="43.93981" lon="1.43153">
        <ele>136.788376</ele>
        <time>2016-09-03T09:08:26Z</time>
      </trkpt>
      <trkpt lat="43.93992" lon="1.43127">
        <ele>138.334396</ele>
        <time>2016-09-03T09:08:39Z</time>
      </trkpt>
      <trkpt lat="43.94007" lon="1.431">
        <ele>141.052322</ele>
        <time>2016-09-03T09:08:56Z</time>
      </trkpt>
      <trkpt lat="43.94026" lon="1.43078">
        <ele>143.26239</ele>
        <time>2016-09-03T09:09:09Z</time>
      </trkpt>
      <trkpt lat="43.94047" lon="1.43058">
        <ele>140.876816</ele>
        <time>2016-09-03T09:09:20Z</time>
      </trkpt>
      <trkpt lat="43.94058" lon="1.43035">
        <ele>142.884674</ele>
        <time>2016-09-03T09:09:29Z</time>
      </trkpt>
      <trkpt lat="43.94068" lon="1.43001">
        <ele>147.250992</ele>
        <time>2016-09-03T09:09:41Z</time>
      </trkpt>
      <trkpt lat="43.94074" lon="1.42991">
        <ele>147.656952</ele>
        <time>2016-09-03T09:09:45Z</time>
      </trkpt>
      <trkpt lat="43.9408" lon="1.42972">
        <ele>149.381165</ele>
        <time>2016-09-03T09:09:52Z</time>
      </trkpt>
      <trkpt lat="43.94079" lon="1.42967">
        <ele>150.158417</ele>
        <time>2016-09-03T09:09:54Z</time>
      </trkpt>
      <trkpt lat="43.9411" lon="1.42928">
        <ele>148.579834</ele>
        <time>2016-09-03T09:10:17Z</time>
      </trkpt>
      <trkpt lat="43.94122" lon="1.42923">
        <ele>147.583755</ele>
        <time>2016-09-03T09:10:22Z</time>
      </trkpt>
      <trkpt lat="43.94155" lon="1.42905">
        <ele>146.109528</ele>
        <time>2016-09-03T09:10:33Z</time>
      </trkpt>
      <trkpt lat="43.94181" lon="1.42915">
        <ele>142.4263</ele>
        <time>2016-09-03T09:10:43Z</time>
      </trkpt>
      <trkpt lat="43.94191" lon="1.42911">
        <ele>141.889725</ele>
        <time>2016-09-03T09:10:48Z</time>
      </trkpt>
      <trkpt lat="43.94207" lon="1.4288">
        <ele>143.210114</ele>
        <time>2016-09-03T09:11:03Z</time>
      </trkpt>
      <trkpt lat="43.94208" lon="1.42874">
        <ele>143.929382</ele>
        <time>2016-09-03T09:11:05Z</time>
      </trkpt>
      <trkpt lat="43.94212" lon="1.42856">
        <ele>145.773621</ele>
        <time>2016-09-03T09:11:13Z</time>
      </trkpt>
      <trkpt lat="43.94221" lon="1.42843">
        <ele>146.681183</ele>
        <time>2016-09-03T09:11:23Z</time>
      </trkpt>
      <trkpt lat="43.94236" lon="1.42789">
        <ele>150.475784</ele>
        <time>2016-09-03T09:11:46Z</time>
      </trkpt>
      <trkpt lat="43.94248" lon="1.42787">
        <ele>149.564835</ele>
        <time>2016-09-03T09:11:52Z</time>
      </trkpt>
      <trkpt lat="43.94255" lon="1.42783">
        <ele>150.638824</ele>
        <time>2016-09-03T09:12:03Z</time>
      </trkpt>
      <trkpt lat="43.94263" lon="1.42779">
        <ele>151.805466</ele>
        <time>2016-09-03T09:12:15Z</time>
      </trkpt>
      <trkpt lat="43.94273" lon="1.42782">
        <ele>152.554764</ele>
        <time>2016-09-03T09:12:29Z</time>
      </trkpt>
      <trkpt lat="43.94298" lon="1.42802">
        <ele>151.117661</ele>
        <time>2016-09-03T09:13:15Z</time>
      </trkpt>
      <trkpt lat="43.94322" lon="1.42807">
        <ele>150.863388</ele>
        <time>2016-09-03T09:13:23Z</time>
      </trkpt>
      <trkpt lat="43.94338" lon="1.4277">
        <ele>153.822632</ele>
        <time>2016-09-03T09:13:37Z</time>
      </trkpt>
      <trkpt lat="43.94348" lon="1.42736">
        <ele>157.888458</ele>
        <time>2016-09-03T09:13:52Z</time>
      </trkpt>
      <trkpt lat="43.94354" lon="1.42694">
        <ele>162.299728</ele>
        <time>2016-09-03T09:14:08Z</time>
      </trkpt>
      <trkpt lat="43.94356" lon="1.42648">
        <ele>167.012939</ele>
        <time>2016-09-03T09:14:26Z</time>
      </trkpt>
      <trkpt lat="43.94359" lon="1.4263">
        <ele>168.49086</ele>
        <time>2016-09-03T09:14:33Z</time>
      </trkpt>
      <trkpt lat="43.94357" lon="1.42619">
        <ele>169.614502</ele>
        <time>2016-09-03T09:14:38Z</time>
      </trkpt>
      <trkpt lat="43.94357" lon="1.42584">
        <ele>172.624329</ele>
        <time>2016-09-03T09:14:52Z</time>
      </trkpt>
      <trkpt lat="43.94374" lon="1.42553">
        <ele>174.378403</ele>
        <time>2016-09-03T09:15:09Z</time>
      </trkpt>
      <trkpt lat="43.94388" lon="1.42542">
        <ele>175.45813</ele>
        <time>2016-09-03T09:15:23Z</time>
      </trkpt>
      <trkpt lat="43.94399" lon="1.42532">
        <ele>176.435577</ele>
        <time>2016-09-03T09:15:36Z</time>
      </trkpt>
      <trkpt lat="43.94411" lon="1.42515">
        <ele>177.384949</ele>
        <time>2016-09-03T09:15:47Z</time>
      </trkpt>
      <trkpt lat="43.94413" lon="1.42516">
        <ele>177.307755</ele>
        <time>2016-09-03T09:16:09Z</time>
      </trkpt>
      <trkpt lat="43.9441" lon="1.42516">
        <ele>177.375946</ele>
        <time>2016-09-03T09:16:50Z</time>
      </trkpt>
      <trkpt lat="43.94411" lon="1.42515">
        <ele>177.431442</ele>
        <time>2016-09-03T09:17:44Z</time>
      </trkpt>
      <trkpt lat="43.94411" lon="1.42517">
        <ele>177.279648</ele>
        <time>2016-09-03T09:18:11Z</time>
      </trkpt>
      <trkpt lat="43.94412" lon="1.42514">
        <ele>177.448502</ele>
        <time>2016-09-03T09:18:18Z</time>
      </trkpt>
      <trkpt lat="43.94392" lon="1.42483">
        <ele>180.309998</ele>
        <time>2016-09-03T09:18:32Z</time>
      </trkpt>
      <trkpt lat="43.9436" lon="1.42444">
        <ele>185.102493</ele>
        <time>2016-09-03T09:18:48Z</time>
      </trkpt>
      <trkpt lat="43.94325" lon="1.42411">
        <ele>187.348557</ele>
        <time>2016-09-03T09:19:03Z</time>
      </trkpt>
      <trkpt lat="43.94288" lon="1.42369">
        <ele>187.818909</ele>
        <time>2016-09-03T09:19:18Z</time>
      </trkpt>
      <trkpt lat="43.94276" lon="1.42292">
        <ele>183.422501</ele>
        <time>2016-09-03T09:19:32Z</time>
      </trkpt>
      <trkpt lat="43.94277" lon="1.42189">
        <ele>180.827499</ele>
        <time>2016-09-03T09:19:49Z</time>
      </trkpt>
      <trkpt lat="43.94274" lon="1.42088">
        <ele>180.777496</ele>
        <time>2016-09-03T09:20:05Z</time>
      </trkpt>
      <trkpt lat="43.94267" lon="1.4201">
        <ele>180.69426</ele>
        <time>2016-09-03T09:20:18Z</time>
      </trkpt>
      <trkpt lat="43.94264" lon="1.41905">
        <ele>181.6642</ele>
        <time>2016-09-03T09:20:36Z</time>
      </trkpt>
      <trkpt lat="43.94251" lon="1.41822">
        <ele>182.199371</ele>
        <time>2016-09-03T09:20:52Z</time>
      </trkpt>
      <trkpt lat="43.94222" lon="1.41776">
        <ele>186.66217</ele>
        <time>2016-09-03T09:21:05Z</time>
      </trkpt>
      <trkpt lat="43.94167" lon="1.41753">
        <ele>192.189026</ele>
        <time>2016-09-03T09:21:21Z</time>
      </trkpt>
      <trkpt lat="43.94138" lon="1.41717">
        <ele>194.9095</ele>
        <time>2016-09-03T09:21:34Z</time>
      </trkpt>
      <trkpt lat="43.9411" lon="1.41678">
        <ele>198.152435</ele>
        <time>2016-09-03T09:21:50Z</time>
      </trkpt>
      <trkpt lat="43.94088" lon="1.41651">
        <ele>199.878113</ele>
        <time>2016-09-03T09:22:04Z</time>
      </trkpt>
      <trkpt lat="43.94067" lon="1.4163">
        <ele>201.297668</ele>
        <time>2016-09-03T09:22:16Z</time>
      </trkpt>
      <trkpt lat="43.94039" lon="1.41603">
        <ele>201.83345</ele>
        <time>2016-09-03T09:22:30Z</time>
      </trkpt>
      <trkpt lat="43.94038" lon="1.41595">
        <ele>201.726196</ele>
        <time>2016-09-03T09:22:32Z</time>
      </trkpt>
      <trkpt lat="43.9404" lon="1.41588">
        <ele>201.692795</ele>
        <time>2016-09-03T09:22:34Z</time>
      </trkpt>
      <trkpt lat="43.94049" lon="1.41574">
        <ele>201.57106</ele>
        <time>2016-09-03T09:22:38Z</time>
      </trkpt>
      <trkpt lat="43.9409" lon="1.41519">
        <ele>201.679443</ele>
        <time>2016-09-03T09:22:57Z</time>
      </trkpt>
      <trkpt lat="43.94164" lon="1.41454">
        <ele>201.130753</ele>
        <time>2016-09-03T09:23:20Z</time>
      </trkpt>
      <trkpt lat="43.94254" lon="1.41364">
        <ele>196.851837</ele>
        <time>2016-09-03T09:23:40Z</time>
      </trkpt>
      <trkpt lat="43.94328" lon="1.41274">
        <ele>194.791809</ele>
        <time>2016-09-03T09:23:59Z</time>
      </trkpt>
      <trkpt lat="43.9439" lon="1.41148">
        <ele>192.567062</ele>
        <time>2016-09-03T09:24:17Z</time>
      </trkpt>
      <trkpt lat="43.94422" lon="1.41029">
        <ele>191.143753</ele>
        <time>2016-09-03T09:24:33Z</time>
      </trkpt>
      <trkpt lat="43.94453" lon="1.4092">
        <ele>197.018524</ele>
        <time>2016-09-03T09:24:50Z</time>
      </trkpt>
      <trkpt lat="43.94482" lon="1.4084">
        <ele>199.818771</ele>
        <time>2016-09-03T09:25:05Z</time>
      </trkpt>
      <trkpt lat="43.94529" lon="1.40755">
        <ele>199.539566</ele>
        <time>2016-09-03T09:25:20Z</time>
      </trkpt>
      <trkpt lat="43.94597" lon="1.40665">
        <ele>196.390305</ele>
        <time>2016-09-03T09:25:36Z</time>
      </trkpt>
      <trkpt lat="43.94652" lon="1.40541">
        <ele>194.1465</ele>
        <time>2016-09-03T09:25:53Z</time>
      </trkpt>
      <trkpt lat="43.94655" lon="1.40527">
        <ele>194.397919</ele>
        <time>2016-09-03T09:25:55Z</time>
      </trkpt>
      <trkpt lat="43.94669" lon="1.40416">
        <ele>196.195007</ele>
        <time>2016-09-03T09:26:11Z</time>
      </trkpt>
      <trkpt lat="43.94667" lon="1.40313">
        <ele>201.315002</ele>
        <time>2016-09-03T09:26:30Z</time>
      </trkpt>
      <trkpt lat="43.94664" lon="1.40217">
        <ele>206.667664</ele>
        <time>2016-09-03T09:26:49Z</time>
      </trkpt>
      <trkpt lat="43.94665" lon="1.40136">
        <ele>209.472046</ele>
        <time>2016-09-03T09:27:06Z</time>
      </trkpt>
      <trkpt lat="43.94667" lon="1.40067">
        <ele>210.979706</ele>
        <time>2016-09-03T09:27:22Z</time>
      </trkpt>
      <trkpt lat="43.94673" lon="1.40041">
        <ele>210.662506</ele>
        <time>2016-09-03T09:27:28Z</time>
      </trkpt>
      <trkpt lat="43.94695" lon="1.39974">
        <ele>209.606247</ele>
        <time>2016-09-03T09:27:41Z</time>
      </trkpt>
      <trkpt lat="43.94758" lon="1.39797">
        <ele>210.762512</ele>
        <time>2016-09-03T09:28:08Z</time>
      </trkpt>
      <trkpt lat="43.94781" lon="1.39744">
        <ele>210.798767</ele>
        <time>2016-09-03T09:28:19Z</time>
      </trkpt>
      <trkpt lat="43.94829" lon="1.3968">
        <ele>208.146576</ele>
        <time>2016-09-03T09:28:32Z</time>
      </trkpt>
      <trkpt lat="43.94901" lon="1.3963">
        <ele>201.868454</ele>
        <time>2016-09-03T09:28:46Z</time>
      </trkpt>
      <trkpt lat="43.94925" lon="1.39616">
        <ele>200.119888</ele>
        <time>2016-09-03T09:28:50Z</time>
      </trkpt>
      <trkpt lat="43.95014" lon="1.39608">
        <ele>193.961227</ele>
        <time>2016-09-03T09:29:03Z</time>
      </trkpt>
      <trkpt lat="43.95096" lon="1.39602">
        <ele>193.796906</ele>
        <time>2016-09-03T09:29:16Z</time>
      </trkpt>
      <trkpt lat="43.95137" lon="1.39604">
        <ele>195.767822</ele>
        <time>2016-09-03T09:29:26Z</time>
      </trkpt>
      <trkpt lat="43.95136" lon="1.39616">
        <ele>195.904373</ele>
        <time>2016-09-03T09:29:29Z</time>
      </trkpt>
      <trkpt lat="43.95129" lon="1.3971">
        <ele>196.482803</ele>
        <time>2016-09-03T09:29:47Z</time>
      </trkpt>
      <trkpt lat="43.95125" lon="1.3981">
        <ele>194.435074</ele>
        <time>2016-09-03T09:30:02Z</time>
      </trkpt>
      <trkpt lat="43.9513" lon="1.39915">
        <ele>189.037506</ele>
        <time>2016-09-03T09:30:14Z</time>
      </trkpt>
      <trkpt lat="43.95147" lon="1.39958">
        <ele>187.355881</ele>
        <time>2016-09-03T09:30:19Z</time>
      </trkpt>
      <trkpt lat="43.9525" lon="1.40073">
        <ele>182.242966</ele>
        <time>2016-09-03T09:30:35Z</time>
      </trkpt>
      <trkpt lat="43.9533" lon="1.40148">
        <ele>182.427505</ele>
        <time>2016-09-03T09:30:47Z</time>
      </trkpt>
      <trkpt lat="43.95386" lon="1.40228">
        <ele>182.530594</ele>
        <time>2016-09-03T09:31:06Z</time>
      </trkpt>
      <trkpt lat="43.95407" lon="1.4025">
        <ele>181.530182</ele>
        <time>2016-09-03T09:31:12Z</time>
      </trkpt>
      <trkpt lat="43.95434" lon="1.40275">
        <ele>177.913132</ele>
        <time>2016-09-03T09:31:23Z</time>
      </trkpt>
      <trkpt lat="43.95434" lon="1.40276">
        <ele>177.798325</ele>
        <time>2016-09-03T09:31:27Z</time>
      </trkpt>
      <trkpt lat="43.95443" lon="1.40289">
        <ele>175.717728</ele>
        <time>2016-09-03T09:31:33Z</time>
      </trkpt>
      <trkpt lat="43.95497" lon="1.40342">
        <ele>167.597504</ele>
        <time>2016-09-03T09:31:45Z</time>
      </trkpt>
      <trkpt lat="43.95581" lon="1.40416">
        <ele>155.363449</ele>
        <time>2016-09-03T09:32:01Z</time>
      </trkpt>
      <trkpt lat="43.95589" lon="1.40434">
        <ele>152.8069</ele>
        <time>2016-09-03T09:32:08Z</time>
      </trkpt>
      <trkpt lat="43.95571" lon="1.40484">
        <ele>149.465866</ele>
        <time>2016-09-03T09:32:16Z</time>
      </trkpt>
      <trkpt lat="43.95584" lon="1.40524">
        <ele>143.764496</ele>
        <time>2016-09-03T09:32:27Z</time>
      </trkpt>
      <trkpt lat="43.95591" lon="1.40542">
        <ele>140.858276</ele>
        <time>2016-09-03T09:32:31Z</time>
      </trkpt>
      <trkpt lat="43.95601" lon="1.4056">
        <ele>137.669495</ele>
        <time>2016-09-03T09:32:35Z</time>
      </trkpt>
      <trkpt lat="43.95619" lon="1.40575">
        <ele>133.882538</ele>
        <time>2016-09-03T09:32:40Z</time>
      </trkpt>
      <trkpt lat="43.95643" lon="1.40573">
        <ele>132.518753</ele>
        <time>2016-09-03T09:32:49Z</time>
      </trkpt>
      <trkpt lat="43.95655" lon="1.40589">
        <ele>129.892502</ele>
        <time>2016-09-03T09:32:54Z</time>
      </trkpt>
      <trkpt lat="43.95665" lon="1.40619">
        <ele>125.897499</ele>
        <time>2016-09-03T09:32:59Z</time>
      </trkpt>
      <trkpt lat="43.95685" lon="1.4069">
        <ele>122.133049</ele>
        <time>2016-09-03T09:33:07Z</time>
      </trkpt>
      <trkpt lat="43.95709" lon="1.40724">
        <ele>124.889198</ele>
        <time>2016-09-03T09:33:12Z</time>
      </trkpt>
      <trkpt lat="43.95724" lon="1.40733">
        <ele>125.903671</ele>
        <time>2016-09-03T09:33:15Z</time>
      </trkpt>
      <trkpt lat="43.95739" lon="1.40739">
        <ele>126.915527</ele>
        <time>2016-09-03T09:33:18Z</time>
      </trkpt>
      <trkpt lat="43.95776" lon="1.40749">
        <ele>128.905594</ele>
        <time>2016-09-03T09:33:25Z</time>
      </trkpt>
      <trkpt lat="43.95806" lon="1.40767">
        <ele>130.925491</ele>
        <time>2016-09-03T09:33:31Z</time>
      </trkpt>
      <trkpt lat="43.95876" lon="1.40799">
        <ele>125.375252</ele>
        <time>2016-09-03T09:33:43Z</time>
      </trkpt>
      <trkpt lat="43.95928" lon="1.40817">
        <ele>120.036171</ele>
        <time>2016-09-03T09:33:50Z</time>
      </trkpt>
      <trkpt lat="43.96005" lon="1.40866">
        <ele>118.845253</ele>
        <time>2016-09-03T09:34:03Z</time>
      </trkpt>
      <trkpt lat="43.96073" lon="1.40891">
        <ele>119.489395</ele>
        <time>2016-09-03T09:34:14Z</time>
      </trkpt>
      <trkpt lat="43.96093" lon="1.40893">
        <ele>119.048744</ele>
        <time>2016-09-03T09:34:17Z</time>
      </trkpt>
      <trkpt lat="43.96207" lon="1.40929">
        <ele>116.0448</ele>
        <time>2016-09-03T09:34:34Z</time>
      </trkpt>
      <trkpt lat="43.96248" lon="1.4095">
        <ele>115.36805</ele>
        <time>2016-09-03T09:34:41Z</time>
      </trkpt>
      <trkpt lat="43.96271" lon="1.40973">
        <ele>116.164627</ele>
        <time>2016-09-03T09:34:47Z</time>
      </trkpt>
      <trkpt lat="43.96294" lon="1.4099">
        <ele>115.28714</ele>
        <time>2016-09-03T09:34:53Z</time>
      </trkpt>
      <trkpt lat="43.96359" lon="1.41047">
        <ele>112.880096</ele>
        <time>2016-09-03T09:35:08Z</time>
      </trkpt>
      <trkpt lat="43.96371" lon="1.41056">
        <ele>112.332626</ele>
        <time>2016-09-03T09:35:11Z</time>
      </trkpt>
      <trkpt lat="43.96386" lon="1.41074">
        <ele>111.944244</ele>
        <time>2016-09-03T09:35:15Z</time>
      </trkpt>
      <trkpt lat="43.96409" lon="1.41122">
        <ele>112.556114</ele>
        <time>2016-09-03T09:35:24Z</time>
      </trkpt>
      <trkpt lat="43.96467" lon="1.41188">
        <ele>113.539024</ele>
        <time>2016-09-03T09:35:40Z</time>
      </trkpt>
      <trkpt lat="43.96502" lon="1.41213">
        <ele>113.126091</ele>
        <time>2016-09-03T09:35:48Z</time>
      </trkpt>
      <trkpt lat="43.96534" lon="1.41243">
        <ele>110.858627</ele>
        <time>2016-09-03T09:35:56Z</time>
      </trkpt>
      <trkpt lat="43.96544" lon="1.41269">
        <ele>113.402809</ele>
        <time>2016-09-03T09:36:01Z</time>
      </trkpt>
      <trkpt lat="43.96572" lon="1.41329">
        <ele>114.266136</ele>
        <time>2016-09-03T09:36:11Z</time>
      </trkpt>
      <trkpt lat="43.96585" lon="1.41341">
        <ele>113.438751</ele>
        <time>2016-09-03T09:36:19Z</time>
      </trkpt>
      <trkpt lat="43.96585" lon="1.41344">
        <ele>113.586082</ele>
        <time>2016-09-03T09:36:33Z</time>
      </trkpt>
      <trkpt lat="43.96589" lon="1.41342">
        <ele>112.706039</ele>
        <time>2016-09-03T09:36:43Z</time>
      </trkpt>
      <trkpt lat="43.96596" lon="1.41327">
        <ele>110.150002</ele>
        <time>2016-09-03T09:37:01Z</time>
      </trkpt>
      <trkpt lat="43.96594" lon="1.41313">
        <ele>109.565674</ele>
        <time>2016-09-03T09:37:11Z</time>
      </trkpt>
      <trkpt lat="43.96616" lon="1.4126">
        <ele>109.364014</ele>
        <time>2016-09-03T09:37:32Z</time>
      </trkpt>
      <trkpt lat="43.96618" lon="1.41242">
        <ele>110.540222</ele>
        <time>2016-09-03T09:37:44Z</time>
      </trkpt>
      <trkpt lat="43.96623" lon="1.41229">
        <ele>111.402977</ele>
        <time>2016-09-03T09:38:10Z</time>
      </trkpt>
      <trkpt lat="43.96622" lon="1.41217">
        <ele>111.929298</ele>
        <time>2016-09-03T09:38:16Z</time>
      </trkpt>
      <trkpt lat="43.96633" lon="1.41144">
        <ele>115.705002</ele>
        <time>2016-09-03T09:38:39Z</time>
      </trkpt>
      <trkpt lat="43.96638" lon="1.41092">
        <ele>118.817497</ele>
        <time>2016-09-03T09:38:53Z</time>
      </trkpt>
      <trkpt lat="43.96644" lon="1.40971">
        <ele>122.3367</ele>
        <time>2016-09-03T09:39:28Z</time>
      </trkpt>
      <trkpt lat="43.96646" lon="1.4091">
        <ele>122.709282</ele>
        <time>2016-09-03T09:39:46Z</time>
      </trkpt>
      <trkpt lat="43.96637" lon="1.40861">
        <ele>124.239372</ele>
        <time>2016-09-03T09:40:01Z</time>
      </trkpt>
      <trkpt lat="43.96616" lon="1.40816">
        <ele>127.6577</ele>
        <time>2016-09-03T09:40:17Z</time>
      </trkpt>
      <trkpt lat="43.9656" lon="1.40689">
        <ele>136.253189</ele>
        <time>2016-09-03T09:41:06Z</time>
      </trkpt>
      <trkpt lat="43.96561" lon="1.40683">
        <ele>136.337433</ele>
        <time>2016-09-03T09:41:10Z</time>
      </trkpt>
      <trkpt lat="43.96601" lon="1.40576">
        <ele>134.137497</ele>
        <time>2016-09-03T09:41:41Z</time>
      </trkpt>
      <trkpt lat="43.96631" lon="1.40486">
        <ele>135.449997</ele>
        <time>2016-09-03T09:42:00Z</time>
      </trkpt>
      <trkpt lat="43.96665" lon="1.40363">
        <ele>138.449539</ele>
        <time>2016-09-03T09:42:22Z</time>
      </trkpt>
      <trkpt lat="43.9669" lon="1.40313">
        <ele>137.235001</ele>
        <time>2016-09-03T09:42:33Z</time>
      </trkpt>
      <trkpt lat="43.96706" lon="1.4029">
        <ele>135.846252</ele>
        <time>2016-09-03T09:42:37Z</time>
      </trkpt>
      <trkpt lat="43.96725" lon="1.4026">
        <ele>134.244995</ele>
        <time>2016-09-03T09:42:42Z</time>
      </trkpt>
      <trkpt lat="43.96742" lon="1.40215">
        <ele>133.439453</ele>
        <time>2016-09-03T09:42:47Z</time>
      </trkpt>
      <trkpt lat="43.96771" lon="1.40156">
        <ele>131.59726</ele>
        <time>2016-09-03T09:42:54Z</time>
      </trkpt>
      <trkpt lat="43.96778" lon="1.40146">
        <ele>131.125183</ele>
        <time>2016-09-03T09:42:56Z</time>
      </trkpt>
      <trkpt lat="43.96789" lon="1.40121">
        <ele>131.99028</ele>
        <time>2016-09-03T09:43:00Z</time>
      </trkpt>
      <trkpt lat="43.96792" lon="1.40108">
        <ele>132.862106</ele>
        <time>2016-09-03T09:43:02Z</time>
      </trkpt>
      <trkpt lat="43.96793" lon="1.4007">
        <ele>134.156494</ele>
        <time>2016-09-03T09:43:24Z</time>
      </trkpt>
      <trkpt lat="43.96789" lon="1.39991">
        <ele>137.038834</ele>
        <time>2016-09-03T09:43:45Z</time>
      </trkpt>
      <trkpt lat="43.96789" lon="1.39969">
        <ele>137.792496</ele>
        <time>2016-09-03T09:43:50Z</time>
      </trkpt>
      <trkpt lat="43.96794" lon="1.39961">
        <ele>138.270004</ele>
        <time>2016-09-03T09:43:55Z</time>
      </trkpt>
      <trkpt lat="43.96797" lon="1.39953">
        <ele>138.680008</ele>
        <time>2016-09-03T09:44:00Z</time>
      </trkpt>
      <trkpt lat="43.96824" lon="1.39908">
        <ele>142.698486</ele>
        <time>2016-09-03T09:44:31Z</time>
      </trkpt>
      <trkpt lat="43.96838" lon="1.39887">
        <ele>146.086197</ele>
        <time>2016-09-03T09:44:45Z</time>
      </trkpt>
      <trkpt lat="43.96848" lon="1.39871">
        <ele>148.276291</ele>
        <time>2016-09-03T09:44:57Z</time>
      </trkpt>
      <trkpt lat="43.96865" lon="1.39846">
        <ele>151.649918</ele>
        <time>2016-09-03T09:45:15Z</time>
      </trkpt>
      <trkpt lat="43.96875" lon="1.39821">
        <ele>154.90892</ele>
        <time>2016-09-03T09:45:31Z</time>
      </trkpt>
      <trkpt lat="43.96874" lon="1.39796">
        <ele>158.101379</ele>
        <time>2016-09-03T09:45:44Z</time>
      </trkpt>
      <trkpt lat="43.96867" lon="1.39767">
        <ele>162.16362</ele>
        <time>2016-09-03T09:46:01Z</time>
      </trkpt>
      <trkpt lat="43.96863" lon="1.39731">
        <ele>166.77359</ele>
        <time>2016-09-03T09:46:20Z</time>
      </trkpt>
      <trkpt lat="43.96865" lon="1.39697">
        <ele>169.139618</ele>
        <time>2016-09-03T09:46:35Z</time>
      </trkpt>
      <trkpt lat="43.96882" lon="1.39618">
        <ele>172.719391</ele>
        <time>2016-09-03T09:47:08Z</time>
      </trkpt>
      <trkpt lat="43.96895" lon="1.39579">
        <ele>173.501251</ele>
        <time>2016-09-03T09:48:04Z</time>
      </trkpt>
      <trkpt lat="43.96899" lon="1.39577">
        <ele>173.53125</ele>
        <time>2016-09-03T09:48:28Z</time>
      </trkpt>
      <trkpt lat="43.9689" lon="1.39548">
        <ele>174</ele>
        <time>2016-09-03T09:48:38Z</time>
      </trkpt>
      <trkpt lat="43.9686" lon="1.395">
        <ele>174.315399</ele>
        <time>2016-09-03T09:48:52Z</time>
      </trkpt>
      <trkpt lat="43.96799" lon="1.3943">
        <ele>176.499207</ele>
        <time>2016-09-03T09:49:12Z</time>
      </trkpt>
      <trkpt lat="43.96764" lon="1.3938">
        <ele>177.410629</ele>
        <time>2016-09-03T09:49:26Z</time>
      </trkpt>
      <trkpt lat="43.96728" lon="1.39327">
        <ele>177.195007</ele>
        <time>2016-09-03T09:49:42Z</time>
      </trkpt>
      <trkpt lat="43.96726" lon="1.39327">
        <ele>177.04187</ele>
        <time>2016-09-03T09:49:43Z</time>
      </trkpt>
      <trkpt lat="43.96723" lon="1.3933">
        <ele>176.723755</ele>
        <time>2016-09-03T09:49:54Z</time>
      </trkpt>
      <trkpt lat="43.96721" lon="1.39339">
        <ele>176.341873</ele>
        <time>2016-09-03T09:50:15Z</time>
      </trkpt>
      <trkpt lat="43.96727" lon="1.39362">
        <ele>176.491257</ele>
        <time>2016-09-03T09:50:41Z</time>
      </trkpt>
      <trkpt lat="43.96719" lon="1.39344">
        <ele>176.089371</ele>
        <time>2016-09-03T10:09:04Z</time>
      </trkpt>
      <trkpt lat="43.96719" lon="1.39339">
        <ele>176.215622</ele>
        <time>2016-09-03T10:09:10Z</time>
      </trkpt>
      <trkpt lat="43.96724" lon="1.39328">
        <ele>176.797501</ele>
        <time>2016-09-03T10:09:14Z</time>
      </trkpt>
      <trkpt lat="43.96723" lon="1.39324">
        <ele>176.824997</ele>
        <time>2016-09-03T10:09:15Z</time>
      </trkpt>
      <trkpt lat="43.96695" lon="1.39267">
        <ele>176.852127</ele>
        <time>2016-09-03T10:09:32Z</time>
      </trkpt>
      <trkpt lat="43.96683" lon="1.3925">
        <ele>176.859375</ele>
        <time>2016-09-03T10:09:38Z</time>
      </trkpt>
      <trkpt lat="43.96663" lon="1.39231">
        <ele>176.190262</ele>
        <time>2016-09-03T10:09:43Z</time>
      </trkpt>
      <trkpt lat="43.96652" lon="1.39225">
        <ele>175.629272</ele>
        <time>2016-09-03T10:09:45Z</time>
      </trkpt>
      <trkpt lat="43.96641" lon="1.39221">
        <ele>174.939743</ele>
        <time>2016-09-03T10:09:47Z</time>
      </trkpt>
      <trkpt lat="43.9663" lon="1.39222">
        <ele>175.290619</ele>
        <time>2016-09-03T10:09:49Z</time>
      </trkpt>
      <trkpt lat="43.96619" lon="1.39225">
        <ele>175.349045</ele>
        <time>2016-09-03T10:09:51Z</time>
      </trkpt>
      <trkpt lat="43.96609" lon="1.3923">
        <ele>175.291382</ele>
        <time>2016-09-03T10:09:53Z</time>
      </trkpt>
      <trkpt lat="43.96559" lon="1.3927">
        <ele>178.302536</ele>
        <time>2016-09-03T10:10:07Z</time>
      </trkpt>
      <trkpt lat="43.96528" lon="1.39266">
        <ele>182.143311</ele>
        <time>2016-09-03T10:10:17Z</time>
      </trkpt>
      <trkpt lat="43.96508" lon="1.39218">
        <ele>186.902496</ele>
        <time>2016-09-03T10:10:30Z</time>
      </trkpt>
      <trkpt lat="43.96482" lon="1.39151">
        <ele>189.567078</ele>
        <time>2016-09-03T10:10:47Z</time>
      </trkpt>
      <trkpt lat="43.9645" lon="1.39092">
        <ele>190.993744</ele>
        <time>2016-09-03T10:11:01Z</time>
      </trkpt>
      <trkpt lat="43.96403" lon="1.39015">
        <ele>192.770813</ele>
        <time>2016-09-03T10:11:17Z</time>
      </trkpt>
      <trkpt lat="43.96378" lon="1.38977">
        <ele>194.469116</ele>
        <time>2016-09-03T10:11:31Z</time>
      </trkpt>
      <trkpt lat="43.96354" lon="1.38949">
        <ele>197.350006</ele>
        <time>2016-09-03T10:11:45Z</time>
      </trkpt>
      <trkpt lat="43.96354" lon="1.38941">
        <ele>198.041245</ele>
        <time>2016-09-03T10:11:48Z</time>
      </trkpt>
      <trkpt lat="43.96363" lon="1.38921">
        <ele>198.706253</ele>
        <time>2016-09-03T10:12:00Z</time>
      </trkpt>
    </trkseg>
  </trk>
</gpx>